Time,TemperatureF,DewpointF,PressureIn,WindDirection,WindDirectionDegrees,WindSpeedMPH,WindSpeedGustMPH,Humidity,HourlyPrecipIn,Conditions,Clouds,dailyrainin,SolarRadiationWatts/m^2,SoftwareType,DateUTC
2013-01-20 00:00:00,29.9,19.9,29.98,WNW,294,18.7,29.7,66,0.00,,,0.00,0.00,VWS V14.01,2013-01-20 06:00:00,
2013-01-20 00:03:00,29.8,19.8,29.98,WNW,283,24.2,27.5,66,0.00,,,0.00,0.00,VWS V14.01,2013-01-20 06:03:00,
2013-01-20 00:05:00,29.7,19.8,29.98,West,272,22.0,22.0,66,0.00,,,0.00,0.00,VWS V14.01,2013-01-20 06:05:00,
2013-01-20 00:08:00,29.6,19.6,29.98,WNW,297,27.5,33.0,66,0.00,,,0.00,0.00,VWS V14.01,2013-01-20 06:08:00,
2013-01-20 00:10:00,29.6,19.6,29.98,West,275,9.9,19.8,66,0.00,,,0.00,0.00,VWS V14.01,2013-01-20 06:10:00,
2013-01-20 00:14:00,29.4,19.5,29.98,WNW,285,15.4,22.0,66,0.00,,,0.00,0.00,VWS V14.01,2013-01-20 06:14:00,
2013-01-20 00:15:00,29.4,19.5,29.98,WNW,285,14.3,20.9,66,0.00,,,0.00,0.00,VWS V14.01,2013-01-20 06:15:00,
2013-01-20 00:16:00,29.4,19.1,29.98,West,267,22.0,25.3,65,0.00,,,0.00,0.00,VWS V14.01,2013-01-20 06:16:00,
2013-01-20 00:19:00,29.3,18.6,29.99,NW,314,23.1,28.6,64,0.00,,,0.00,0.00,VWS V14.01,2013-01-20 06:19:00,
2013-01-20 00:20:00,29.3,18.3,29.99,WNW,289,22.0,22.0,63,0.00,,,0.00,0.00,VWS V14.01,2013-01-20 06:20:00,
2013-01-20 00:21:00,29.3,18.3,29.99,WNW,294,12.1,24.2,63,0.00,,,0.00,0.00,VWS V14.01,2013-01-20 06:21:00,
2013-01-20 00:25:00,29.0,18.7,30.00,West,278,11.0,11.0,65,0.00,,,0.00,0.00,VWS V14.01,2013-01-20 06:25:00,
2013-01-20 00:26:00,29.0,19.1,30.00,West,264,18.7,18.7,66,0.00,,,0.00,0.00,VWS V14.01,2013-01-20 06:26:00,
2013-01-20 00:27:00,28.9,19.3,30.00,WNW,286,22.0,22.0,67,0.00,,,0.00,0.00,VWS V14.01,2013-01-20 06:27:00,
2013-01-20 00:30:00,28.8,19.6,30.00,West,259,15.4,26.4,68,0.00,,,0.00,0.00,VWS V14.01,2013-01-20 06:30:00,
2013-01-20 00:32:00,28.7,19.1,30.00,West,280,18.7,18.7,67,0.00,,,0.00,0.00,VWS V14.01,2013-01-20 06:32:00,
2013-01-20 00:33:00,28.6,19.0,30.00,WNW,288,16.5,27.5,67,0.00,,,0.00,0.00,VWS V14.01,2013-01-20 06:33:00,
2013-01-20 00:37:00,28.3,18.4,30.01,West,276,16.5,22.0,66,0.00,,,0.00,0.00,VWS V14.01,2013-01-20 06:37:00,
2013-01-20 00:38:00,28.3,18.4,30.01,West,278,25.3,29.7,66,0.00,,,0.00,0.00,VWS V14.01,2013-01-20 06:38:00,
2013-01-20 00:42:00,27.9,17.7,30.01,WNW,282,12.1,17.6,65,0.00,,,0.00,0.00,VWS V14.01,2013-01-20 06:42:00,
2013-01-20 00:43:00,27.9,17.7,30.01,West,272,18.7,20.9,65,0.00,,,0.00,0.00,VWS V14.01,2013-01-20 06:43:00,
2013-01-20 00:47:00,27.6,17.7,30.02,WNW,285,11.0,23.1,66,0.00,,,0.00,0.00,VWS V14.01,2013-01-20 06:47:00,
2013-01-20 00:48:00,27.6,17.7,30.01,West,273,13.2,19.8,66,0.00,,,0.00,0.00,VWS V14.01,2013-01-20 06:48:00,
2013-01-20 00:49:00,27.5,17.6,30.01,West,280,18.7,19.8,66,0.00,,,0.00,0.00,VWS V14.01,2013-01-20 06:49:00,
2013-01-20 00:52:00,27.4,17.5,30.02,WNW,285,14.3,31.9,66,0.00,,,0.00,0.00,VWS V14.01,2013-01-20 06:52:00,
2013-01-20 00:53:00,27.4,17.5,30.02,NW,316,16.5,20.9,66,0.00,,,0.00,0.00,VWS V14.01,2013-01-20 06:53:00,
2013-01-20 00:54:00,27.3,17.5,30.02,West,277,13.2,19.8,66,0.00,,,0.00,0.00,VWS V14.01,2013-01-20 06:54:00,
2013-01-20 00:55:00,27.3,17.5,30.03,West,266,19.8,19.8,66,0.00,,,0.00,0.00,VWS V14.01,2013-01-20 06:55:00,
2013-01-20 00:58:00,27.2,17.7,30.03,WNW,283,17.6,17.6,67,0.00,,,0.00,0.00,VWS V14.01,2013-01-20 06:58:00,
2013-01-20 00:59:00,27.1,17.6,30.03,WNW,287,17.6,26.4,67,0.00,,,0.00,0.00,VWS V14.01,2013-01-20 06:59:00,
2013-01-20 01:02:00,27.0,17.5,30.03,NW,305,11.0,20.9,67,0.00,,,0.00,0.00,VWS V14.01,2013-01-20 07:02:00,
2013-01-20 01:03:00,26.9,17.4,30.03,West,278,17.6,20.9,67,0.00,,,0.00,0.00,VWS V14.01,2013-01-20 07:03:00,
2013-01-20 01:04:00,26.9,17.4,30.03,West,268,20.9,20.9,67,0.00,,,0.00,0.00,VWS V14.01,2013-01-20 07:04:00,
2013-01-20 01:05:00,26.8,17.3,30.04,NW,320,17.6,19.8,67,0.00,,,0.00,0.00,VWS V14.01,2013-01-20 07:05:00,
2013-01-20 01:08:00,26.7,16.9,30.04,WNW,288,15.4,17.6,66,0.00,,,0.00,0.00,VWS V14.01,2013-01-20 07:08:00,
2013-01-20 01:09:00,26.7,16.5,30.04,NW,306,13.2,31.9,65,0.00,,,0.00,0.00,VWS V14.01,2013-01-20 07:09:00,
2013-01-20 01:10:00,26.6,15.7,30.04,West,280,13.2,23.1,63,0.00,,,0.00,0.00,VWS V14.01,2013-01-20 07:10:00,
2013-01-20 01:13:00,26.4,15.2,30.05,WNW,297,13.2,13.2,62,0.00,,,0.00,0.00,VWS V14.01,2013-01-20 07:13:00,
2013-01-20 01:14:00,26.4,15.5,30.05,WNW,297,17.6,23.1,63,0.00,,,0.00,0.00,VWS V14.01,2013-01-20 07:14:00,
2013-01-20 01:15:00,26.3,15.8,30.05,WNW,291,14.3,27.5,64,0.00,,,0.00,0.00,VWS V14.01,2013-01-20 07:15:00,
2013-01-20 01:16:00,26.3,15.8,30.05,West,276,20.9,20.9,64,0.00,,,0.00,0.00,VWS V14.01,2013-01-20 07:16:00,
2013-01-20 01:19:00,26.0,15.5,30.05,NNW,332,15.4,30.8,64,0.00,,,0.00,0.00,VWS V14.01,2013-01-20 07:19:00,
2013-01-20 01:21:00,25.8,15.0,30.06,NW,312,16.5,18.7,63,0.00,,,0.00,0.00,VWS V14.01,2013-01-20 07:21:00,
2013-01-20 01:25:00,25.5,15.0,30.06,WNW,295,13.2,26.4,64,0.00,,,0.00,0.00,VWS V14.01,2013-01-20 07:25:00,
2013-01-20 01:26:00,25.4,14.6,30.06,WNW,298,30.8,30.8,63,0.00,,,0.00,0.00,VWS V14.01,2013-01-20 07:26:00,
2013-01-20 01:27:00,25.4,14.6,30.06,WNW,301,22.0,30.8,63,0.00,,,0.00,0.00,VWS V14.01,2013-01-20 07:27:00,
2013-01-20 01:31:00,25.2,12.5,30.07,NW,310,26.4,34.1,58,0.00,,,0.00,0.00,VWS V14.01,2013-01-20 07:31:00,
2013-01-20 01:32:00,25.1,12.0,30.07,NNW,327,18.7,33.0,57,0.00,,,0.00,0.00,VWS V14.01,2013-01-20 07:32:00,
2013-01-20 01:35:00,24.9,11.4,30.07,NW,316,15.4,28.6,56,0.00,,,0.00,0.00,VWS V14.01,2013-01-20 07:35:00,
2013-01-20 01:36:00,24.7,11.2,30.07,NW,305,19.8,27.5,56,0.00,,,0.00,0.00,VWS V14.01,2013-01-20 07:36:00,
2013-01-20 01:37:00,24.7,11.6,30.07,WNW,291,15.4,20.9,57,0.00,,,0.00,0.00,VWS V14.01,2013-01-20 07:37:00,
2013-01-20 01:38:00,24.6,11.6,30.07,NW,319,24.2,30.8,57,0.00,,,0.00,0.00,VWS V14.01,2013-01-20 07:38:00,
2013-01-20 01:40:00,24.4,11.4,30.07,WNW,290,25.3,27.5,57,0.00,,,0.00,0.00,VWS V14.01,2013-01-20 07:40:00,
2013-01-20 01:41:00,24.4,11.8,30.07,NW,305,15.4,19.8,58,0.00,,,0.00,0.00,VWS V14.01,2013-01-20 07:41:00,
2013-01-20 01:43:00,24.2,11.9,30.08,West,281,18.7,23.1,59,0.00,,,0.00,0.00,VWS V14.01,2013-01-20 07:43:00,
2013-01-20 01:44:00,24.2,11.9,30.08,WNW,285,20.9,20.9,59,0.00,,,0.00,0.00,VWS V14.01,2013-01-20 07:44:00,
2013-01-20 01:45:00,24.1,11.9,30.08,WNW,299,16.5,23.1,59,0.00,,,0.00,0.00,VWS V14.01,2013-01-20 07:45:00,
2013-01-20 01:46:00,24.0,12.1,30.08,WNW,288,13.2,15.4,60,0.00,,,0.00,0.00,VWS V14.01,2013-01-20 07:46:00,
2013-01-20 01:48:00,24.0,11.8,30.08,WNW,303,23.1,23.1,59,0.00,,,0.00,0.00,VWS V14.01,2013-01-20 07:48:00,
2013-01-20 01:49:00,24.0,12.1,30.08,NW,316,15.4,23.1,60,0.00,,,0.00,0.00,VWS V14.01,2013-01-20 07:49:00,
2013-01-20 01:50:00,23.9,12.1,30.08,West,275,20.9,22.0,60,0.00,,,0.00,0.00,VWS V14.01,2013-01-20 07:50:00,
2013-01-20 01:51:00,23.9,11.7,30.08,WNW,285,20.9,27.5,59,0.00,,,0.00,0.00,VWS V14.01,2013-01-20 07:51:00,
2013-01-20 01:54:00,23.9,11.7,30.08,NNW,327,13.2,16.5,59,0.00,,,0.00,0.00,VWS V14.01,2013-01-20 07:54:00,
2013-01-20 01:55:00,23.8,12.0,30.09,WNW,296,15.4,19.8,60,0.00,,,0.00,0.00,VWS V14.01,2013-01-20 07:55:00,
2013-01-20 01:57:00,23.7,11.9,30.09,NW,312,16.5,20.9,60,0.00,,,0.00,0.00,VWS V14.01,2013-01-20 07:57:00,
2013-01-20 01:59:00,23.6,11.8,30.09,NW,326,11.0,11.0,60,0.00,,,0.00,0.00,VWS V14.01,2013-01-20 07:59:00,
2013-01-20 02:00:00,23.6,11.8,30.09,WNW,292,12.1,16.5,60,0.00,,,0.00,0.00,VWS V14.01,2013-01-20 08:00:00,
2013-01-20 02:02:00,23.4,11.9,30.09,NW,316,23.1,23.1,61,0.00,,,0.00,0.00,VWS V14.01,2013-01-20 08:02:00,
2013-01-20 02:03:00,23.4,11.9,30.09,WNW,303,12.1,23.1,61,0.00,,,0.00,0.00,VWS V14.01,2013-01-20 08:03:00,
2013-01-20 02:05:00,23.3,11.9,30.09,WNW,303,6.6,17.6,61,0.00,,,0.00,0.00,VWS V14.01,2013-01-20 08:05:00,
2013-01-20 02:07:00,23.2,12.1,30.09,NW,314,9.9,18.7,62,0.00,,,0.00,0.00,VWS V14.01,2013-01-20 08:07:00,
2013-01-20 02:08:00,23.2,12.1,30.09,NW,311,13.2,16.5,62,0.00,,,0.00,0.00,VWS V14.01,2013-01-20 08:08:00,
2013-01-20 02:10:00,23.1,12.4,30.09,WNW,299,13.2,15.4,63,0.00,,,0.00,0.00,VWS V14.01,2013-01-20 08:10:00,
2013-01-20 02:12:00,23.1,12.4,30.10,West,264,18.7,18.7,63,0.00,,,0.00,0.00,VWS V14.01,2013-01-20 08:12:00,
2013-01-20 02:14:00,23.0,12.6,30.10,NW,311,7.7,20.9,64,0.00,,,0.00,0.00,VWS V14.01,2013-01-20 08:14:00,
2013-01-20 02:16:00,22.9,12.6,30.10,NNW,328,18.7,22.0,64,0.00,,,0.00,0.00,VWS V14.01,2013-01-20 08:16:00,
2013-01-20 02:18:00,22.9,12.6,30.10,NW,309,11.0,22.0,64,0.00,,,0.00,0.00,VWS V14.01,2013-01-20 08:18:00,
2013-01-20 02:19:00,22.9,12.6,30.10,WNW,292,20.9,23.1,64,0.00,,,0.00,0.00,VWS V14.01,2013-01-20 08:19:00,
2013-01-20 02:21:00,22.8,12.5,30.11,WNW,289,14.3,17.6,64,0.00,,,0.00,0.00,VWS V14.01,2013-01-20 08:21:00,
2013-01-20 02:22:00,22.8,12.5,30.11,WNW,283,12.1,19.8,64,0.00,,,0.00,0.00,VWS V14.01,2013-01-20 08:22:00,
2013-01-20 02:23:00,22.7,12.0,30.11,WNW,285,16.5,22.0,63,0.00,,,0.00,0.00,VWS V14.01,2013-01-20 08:23:00,
2013-01-20 02:24:00,22.7,12.0,30.11,NW,310,25.3,25.3,63,0.00,,,0.00,0.00,VWS V14.01,2013-01-20 08:24:00,
2013-01-20 02:27:00,22.6,11.6,30.11,West,276,12.1,22.0,62,0.00,,,0.00,0.00,VWS V14.01,2013-01-20 08:27:00,
2013-01-20 02:29:00,22.5,11.5,30.11,WNW,295,17.6,22.0,62,0.00,,,0.00,0.00,VWS V14.01,2013-01-20 08:29:00,
2013-01-20 02:32:00,22.4,11.4,30.11,NW,305,12.1,27.5,62,0.00,,,0.00,0.00,VWS V14.01,2013-01-20 08:32:00,
2013-01-20 02:34:00,22.3,11.6,30.12,WNW,301,23.1,23.1,63,0.00,,,0.00,0.00,VWS V14.01,2013-01-20 08:34:00,
2013-01-20 02:35:00,22.2,11.5,30.12,NW,310,19.8,23.1,63,0.00,,,0.00,0.00,VWS V14.01,2013-01-20 08:35:00,
2013-01-20 02:37:00,22.2,11.5,30.12,WNW,285,15.4,20.9,63,0.00,,,0.00,0.00,VWS V14.01,2013-01-20 08:37:00,
2013-01-20 02:38:00,22.2,11.5,30.12,NW,314,18.7,24.2,63,0.00,,,0.00,0.00,VWS V14.01,2013-01-20 08:38:00,
2013-01-20 02:39:00,22.1,11.4,30.12,WNW,299,16.5,19.8,63,0.00,,,0.00,0.00,VWS V14.01,2013-01-20 08:39:00,
2013-01-20 02:40:00,22.1,11.4,30.12,WNW,287,15.4,23.1,63,0.00,,,0.00,0.00,VWS V14.01,2013-01-20 08:40:00,
2013-01-20 02:43:00,22.0,11.7,30.12,NW,313,14.3,20.9,64,0.00,,,0.00,0.00,VWS V14.01,2013-01-20 08:43:00,
2013-01-20 02:45:00,22.0,11.7,30.12,NW,312,11.0,23.1,64,0.00,,,0.00,0.00,VWS V14.01,2013-01-20 08:45:00,
2013-01-20 02:46:00,21.9,12.0,30.12,NNW,335,14.3,19.8,65,0.00,,,0.00,0.00,VWS V14.01,2013-01-20 08:46:00,
2013-01-20 02:49:00,21.8,11.9,30.12,West,270,22.0,25.3,65,0.00,,,0.00,0.00,VWS V14.01,2013-01-20 08:49:00,
2013-01-20 02:50:00,21.8,11.9,30.12,WNW,300,23.1,29.7,65,0.00,,,0.00,0.00,VWS V14.01,2013-01-20 08:50:00,
2013-01-20 02:51:00,21.7,11.8,30.13,NW,319,14.3,20.9,65,0.00,,,0.00,0.00,VWS V14.01,2013-01-20 08:51:00,
2013-01-20 02:54:00,21.7,12.1,30.13,WNW,299,13.2,19.8,66,0.00,,,0.00,0.00,VWS V14.01,2013-01-20 08:54:00,
2013-01-20 02:55:00,21.6,12.0,30.13,WNW,296,19.8,19.8,66,0.00,,,0.00,0.00,VWS V14.01,2013-01-20 08:55:00,
2013-01-20 02:56:00,21.6,12.0,30.13,WNW,299,16.5,20.9,66,0.00,,,0.00,0.00,VWS V14.01,2013-01-20 08:56:00,
2013-01-20 02:58:00,21.6,12.4,30.14,WNW,299,12.1,15.4,67,0.00,,,0.00,0.00,VWS V14.01,2013-01-20 08:58:00,
2013-01-20 03:00:00,21.5,12.3,30.14,NW,308,16.5,19.8,67,0.00,,,0.00,0.00,VWS V14.01,2013-01-20 09:00:00,
2013-01-20 03:01:00,21.5,12.3,30.14,WNW,299,26.4,26.4,67,0.00,,,0.00,0.00,VWS V14.01,2013-01-20 09:01:00,
2013-01-20 03:02:00,21.5,12.3,30.14,WNW,286,20.9,24.2,67,0.00,,,0.00,0.00,VWS V14.01,2013-01-20 09:02:00,
2013-01-20 03:04:00,21.5,12.3,30.14,WNW,303,19.8,22.0,67,0.00,,,0.00,0.00,VWS V14.01,2013-01-20 09:04:00,
2013-01-20 03:05:00,21.4,12.2,30.14,WNW,303,13.2,17.6,67,0.00,,,0.00,0.00,VWS V14.01,2013-01-20 09:05:00,
2013-01-20 03:06:00,21.4,12.2,30.14,WNW,290,14.3,14.3,67,0.00,,,0.00,0.00,VWS V14.01,2013-01-20 09:06:00,
2013-01-20 03:08:00,21.4,12.2,30.15,NNW,330,16.5,22.0,67,0.00,,,0.00,0.00,VWS V14.01,2013-01-20 09:08:00,
2013-01-20 03:09:00,21.3,12.1,30.15,NW,305,16.5,25.3,67,0.00,,,0.00,0.00,VWS V14.01,2013-01-20 09:09:00,
2013-01-20 03:11:00,21.3,11.7,30.15,NW,311,16.5,28.6,66,0.00,,,0.00,0.00,VWS V14.01,2013-01-20 09:11:00,
2013-01-20 03:13:00,21.2,11.6,30.15,WNW,291,17.6,20.9,66,0.00,,,0.00,0.00,VWS V14.01,2013-01-20 09:13:00,
2013-01-20 03:16:00,21.0,11.8,30.15,NW,309,19.8,28.6,67,0.00,,,0.00,0.00,VWS V14.01,2013-01-20 09:16:00,
2013-01-20 03:18:00,20.9,11.7,30.15,WNW,296,15.4,22.0,67,0.00,,,0.00,0.00,VWS V14.01,2013-01-20 09:18:00,
2013-01-20 03:19:00,20.9,11.7,30.15,NW,314,22.0,22.0,67,0.00,,,0.00,0.00,VWS V14.01,2013-01-20 09:19:00,
2013-01-20 03:21:00,20.8,11.9,30.15,NW,316,23.1,24.2,68,0.00,,,0.00,0.00,VWS V14.01,2013-01-20 09:21:00,
2013-01-20 03:22:00,20.7,11.5,30.15,WNW,297,24.2,24.2,67,0.00,,,0.00,0.00,VWS V14.01,2013-01-20 09:22:00,
2013-01-20 03:24:00,20.7,11.8,30.16,WNW,283,18.7,26.4,68,0.00,,,0.00,0.00,VWS V14.01,2013-01-20 09:24:00,
2013-01-20 03:27:00,20.6,11.7,30.15,WNW,287,14.3,25.3,68,0.00,,,0.00,0.00,VWS V14.01,2013-01-20 09:27:00,
2013-01-20 03:29:00,20.5,11.6,30.16,NW,322,14.3,14.3,68,0.00,,,0.00,0.00,VWS V14.01,2013-01-20 09:29:00,
2013-01-20 03:30:00,20.4,11.9,30.16,West,276,12.1,23.1,69,0.00,,,0.00,0.00,VWS V14.01,2013-01-20 09:30:00,
2013-01-20 03:32:00,20.3,12.1,30.16,WNW,301,17.6,25.3,70,0.00,,,0.00,0.00,VWS V14.01,2013-01-20 09:32:00,
2013-01-20 03:33:00,20.3,12.1,30.16,NW,305,14.3,27.5,70,0.00,,,0.00,0.00,VWS V14.01,2013-01-20 09:33:00,
2013-01-20 03:34:00,20.2,12.0,30.16,NW,304,17.6,17.6,70,0.00,,,0.00,0.00,VWS V14.01,2013-01-20 09:34:00,
2013-01-20 03:36:00,20.1,11.6,30.16,NW,326,19.8,28.6,69,0.00,,,0.00,0.00,VWS V14.01,2013-01-20 09:36:00,
2013-01-20 03:38:00,20.0,11.1,30.17,NW,313,15.4,23.1,68,0.00,,,0.00,0.00,VWS V14.01,2013-01-20 09:38:00,
2013-01-20 03:39:00,20.0,11.1,30.17,NNW,328,15.4,25.3,68,0.00,,,0.00,0.00,VWS V14.01,2013-01-20 09:39:00,
2013-01-20 03:41:00,19.8,11.0,30.17,NW,315,17.6,17.6,68,0.00,,,0.00,0.00,VWS V14.01,2013-01-20 09:41:00,
2013-01-20 03:43:00,19.6,10.4,30.17,NNW,330,16.5,19.8,67,0.00,,,0.00,0.00,VWS V14.01,2013-01-20 09:43:00,
2013-01-20 03:44:00,19.5,10.0,30.17,NW,306,9.9,15.4,66,0.00,,,0.00,0.00,VWS V14.01,2013-01-20 09:44:00,
2013-01-20 03:47:00,19.3,10.1,30.17,NW,309,18.7,20.9,67,0.00,,,0.00,0.00,VWS V14.01,2013-01-20 09:47:00,
2013-01-20 03:48:00,19.3,10.1,30.17,NW,314,16.5,20.9,67,0.00,,,0.00,0.00,VWS V14.01,2013-01-20 09:48:00,
2013-01-20 03:49:00,19.2,10.1,30.17,NW,319,19.8,19.8,67,0.00,,,0.00,0.00,VWS V14.01,2013-01-20 09:49:00,
2013-01-20 03:52:00,19.0,9.9,30.17,WNW,300,15.4,20.9,67,0.00,,,0.00,0.00,VWS V14.01,2013-01-20 09:52:00,
2013-01-20 03:54:00,18.9,9.8,30.18,NW,309,13.2,18.7,67,0.00,,,0.00,0.00,VWS V14.01,2013-01-20 09:54:00,
2013-01-20 03:55:00,18.9,10.1,30.18,WNW,291,19.8,22.0,68,0.00,,,0.00,0.00,VWS V14.01,2013-01-20 09:55:00,
2013-01-20 03:57:00,18.8,10.0,30.18,NW,322,16.5,18.7,68,0.00,,,0.00,0.00,VWS V14.01,2013-01-20 09:57:00,
2013-01-20 03:59:00,18.8,10.0,30.18,NW,310,11.0,18.7,68,0.00,,,0.00,0.00,VWS V14.01,2013-01-20 09:59:00,
2013-01-20 04:00:00,18.7,9.9,30.18,NW,325,9.9,14.3,68,0.00,,,0.00,0.00,VWS V14.01,2013-01-20 10:00:00,
2013-01-20 04:02:00,18.6,9.8,30.18,NNW,327,14.3,14.3,68,0.00,,,0.00,0.00,VWS V14.01,2013-01-20 10:02:00,
2013-01-20 04:03:00,18.6,9.8,30.18,WNW,303,16.5,16.5,68,0.00,,,0.00,0.00,VWS V14.01,2013-01-20 10:03:00,
2013-01-20 04:05:00,18.6,9.8,30.18,WNW,298,13.2,16.5,68,0.00,,,0.00,0.00,VWS V14.01,2013-01-20 10:05:00,
2013-01-20 04:06:00,18.5,9.7,30.18,NNW,332,14.3,22.0,68,0.00,,,0.00,0.00,VWS V14.01,2013-01-20 10:06:00,
2013-01-20 04:08:00,18.5,10.0,30.19,WNW,298,17.6,20.9,69,0.00,,,0.00,0.00,VWS V14.01,2013-01-20 10:08:00,
2013-01-20 04:10:00,18.5,10.0,30.19,WNW,293,16.5,16.5,69,0.00,,,0.00,0.00,VWS V14.01,2013-01-20 10:10:00,
2013-01-20 04:11:00,18.5,10.0,30.19,WNW,292,11.0,16.5,69,0.00,,,0.00,0.00,VWS V14.01,2013-01-20 10:11:00,
2013-01-20 04:13:00,18.4,9.9,30.19,WNW,298,11.0,12.1,69,0.00,,,0.00,0.00,VWS V14.01,2013-01-20 10:13:00,
2013-01-20 04:15:00,18.4,9.9,30.19,NW,312,13.2,19.8,69,0.00,,,0.00,0.00,VWS V14.01,2013-01-20 10:15:00,
2013-01-20 04:16:00,18.4,9.9,30.19,WNW,299,19.8,19.8,69,0.00,,,0.00,0.00,VWS V14.01,2013-01-20 10:16:00,
2013-01-20 04:18:00,18.3,9.9,30.19,NW,322,11.0,17.6,69,0.00,,,0.00,0.00,VWS V14.01,2013-01-20 10:18:00,
2013-01-20 04:20:00,18.2,9.8,30.19,NNW,328,11.0,12.1,69,0.00,,,0.00,0.00,VWS V14.01,2013-01-20 10:20:00,
2013-01-20 04:23:00,18.2,9.8,30.19,WNW,283,17.6,17.6,69,0.00,,,0.00,0.00,VWS V14.01,2013-01-20 10:23:00,
2013-01-20 04:25:00,18.2,9.8,30.19,NNW,336,9.9,17.6,69,0.00,,,0.00,0.00,VWS V14.01,2013-01-20 10:25:00,
2013-01-20 04:26:00,18.1,9.7,30.19,WNW,303,14.3,15.4,69,0.00,,,0.00,0.00,VWS V14.01,2013-01-20 10:26:00,
2013-01-20 04:28:00,18.1,9.7,30.19,NW,308,15.4,18.7,69,0.00,,,0.00,0.00,VWS V14.01,2013-01-20 10:28:00,
2013-01-20 04:29:00,18.1,9.7,30.19,NW,316,17.6,18.7,69,0.00,,,0.00,0.00,VWS V14.01,2013-01-20 10:29:00,
2013-01-20 04:30:00,18.0,9.6,30.19,WNW,291,7.7,8.8,69,0.00,,,0.00,0.00,VWS V14.01,2013-01-20 10:30:00,
2013-01-20 04:31:00,18.0,9.9,30.19,WNW,291,5.5,13.2,70,0.00,,,0.00,0.00,VWS V14.01,2013-01-20 10:31:00,
2013-01-20 04:33:00,18.0,9.9,30.19,West,281,15.4,18.7,70,0.00,,,0.00,0.00,VWS V14.01,2013-01-20 10:33:00,
2013-01-20 04:35:00,17.9,9.8,30.19,WNW,296,11.0,14.3,70,0.00,,,0.00,0.00,VWS V14.01,2013-01-20 10:35:00,
2013-01-20 04:36:00,17.9,9.8,30.19,NW,306,18.7,18.7,70,0.00,,,0.00,0.00,VWS V14.01,2013-01-20 10:36:00,
2013-01-20 04:37:00,17.8,9.7,30.19,NW,312,13.2,13.2,70,0.00,,,0.00,0.00,VWS V14.01,2013-01-20 10:37:00,
2013-01-20 04:38:00,17.7,9.9,30.19,WNW,289,8.8,11.0,71,0.00,,,0.00,0.00,VWS V14.01,2013-01-20 10:38:00,
2013-01-20 04:41:00,17.7,9.9,30.19,NW,304,12.1,19.8,71,0.00,,,0.00,0.00,VWS V14.01,2013-01-20 10:41:00,
2013-01-20 04:42:00,17.6,9.8,30.20,West,276,11.0,16.5,71,0.00,,,0.00,0.00,VWS V14.01,2013-01-20 10:42:00,
2013-01-20 04:43:00,17.6,9.8,30.20,NW,312,17.6,17.6,71,0.00,,,0.00,0.00,VWS V14.01,2013-01-20 10:43:00,
2013-01-20 04:44:00,17.5,9.7,30.20,NW,310,16.5,23.1,71,0.00,,,0.00,0.00,VWS V14.01,2013-01-20 10:44:00,
2013-01-20 04:46:00,17.4,9.3,30.20,WNW,301,13.2,13.2,70,0.00,,,0.00,0.00,VWS V14.01,2013-01-20 10:46:00,
2013-01-20 04:48:00,17.3,9.2,30.20,WNW,287,18.7,18.7,70,0.00,,,0.00,0.00,VWS V14.01,2013-01-20 10:48:00,
2013-01-20 04:49:00,17.3,9.2,30.21,NW,318,14.3,20.9,70,0.00,,,0.00,0.00,VWS V14.01,2013-01-20 10:49:00,
2013-01-20 04:51:00,17.2,8.8,30.21,WNW,301,16.5,16.5,69,0.00,,,0.00,0.00,VWS V14.01,2013-01-20 10:51:00,
2013-01-20 04:53:00,17.1,8.7,30.21,WNW,288,13.2,22.0,69,0.00,,,0.00,0.00,VWS V14.01,2013-01-20 10:53:00,
2013-01-20 04:54:00,17.1,8.7,30.21,WNW,289,9.9,25.3,69,0.00,,,0.00,0.00,VWS V14.01,2013-01-20 10:54:00,
2013-01-20 04:57:00,17.0,8.6,30.21,NW,313,13.2,18.7,69,0.00,,,0.00,0.00,VWS V14.01,2013-01-20 10:57:00,
2013-01-20 04:58:00,17.0,8.6,30.22,WNW,299,7.7,14.3,69,0.00,,,0.00,0.00,VWS V14.01,2013-01-20 10:58:00,
2013-01-20 04:59:00,16.9,8.5,30.21,WNW,300,8.8,9.9,69,0.00,,,0.00,0.00,VWS V14.01,2013-01-20 10:59:00,
2013-01-20 05:02:00,16.8,8.7,30.22,NNW,333,14.3,14.3,70,0.00,,,0.00,0.00,VWS V14.01,2013-01-20 11:02:00,
2013-01-20 05:03:00,16.8,8.7,30.21,West,277,8.8,14.3,70,0.00,,,0.00,0.00,VWS V14.01,2013-01-20 11:03:00,
2013-01-20 05:04:00,16.8,8.7,30.22,WNW,296,6.6,13.2,70,0.00,,,0.00,0.00,VWS V14.01,2013-01-20 11:04:00,
2013-01-20 05:05:00,16.8,8.7,30.22,WNW,291,13.2,13.2,70,0.00,,,0.00,0.00,VWS V14.01,2013-01-20 11:05:00,
2013-01-20 05:07:00,16.7,8.6,30.22,WNW,301,12.1,13.2,70,0.00,,,0.00,0.00,VWS V14.01,2013-01-20 11:07:00,
2013-01-20 05:10:00,16.6,8.5,30.22,WNW,290,6.6,9.9,70,0.00,,,0.00,0.00,VWS V14.01,2013-01-20 11:10:00,
2013-01-20 05:13:00,16.5,8.4,30.22,WNW,301,15.4,16.5,70,0.00,,,0.00,0.00,VWS V14.01,2013-01-20 11:13:00,
2013-01-20 05:15:00,16.4,8.3,30.22,NW,305,14.3,19.8,70,0.00,,,0.00,0.00,VWS V14.01,2013-01-20 11:15:00,
2013-01-20 05:16:00,16.4,8.3,30.23,NW,307,8.8,12.1,70,0.00,,,0.00,0.00,VWS V14.01,2013-01-20 11:16:00,
2013-01-20 05:18:00,16.4,8.3,30.23,WNW,302,9.9,15.4,70,0.00,,,0.00,0.00,VWS V14.01,2013-01-20 11:18:00,
2013-01-20 05:21:00,16.3,8.2,30.23,WNW,289,6.6,12.1,70,0.00,,,0.00,0.00,VWS V14.01,2013-01-20 11:21:00,
2013-01-20 05:22:00,16.3,8.2,30.23,WNW,287,12.1,12.1,70,0.00,,,0.00,0.00,VWS V14.01,2013-01-20 11:22:00,
2013-01-20 05:23:00,16.2,8.1,30.23,WNW,303,15.4,16.5,70,0.00,,,0.00,0.00,VWS V14.01,2013-01-20 11:23:00,
2013-01-20 05:27:00,16.2,8.1,30.23,WNW,299,8.8,13.2,70,0.00,,,0.00,0.00,VWS V14.01,2013-01-20 11:27:00,
2013-01-20 05:28:00,16.2,8.1,30.24,WNW,284,12.1,14.3,70,0.00,,,0.00,0.00,VWS V14.01,2013-01-20 11:28:00,
2013-01-20 05:29:00,16.1,8.1,30.24,NW,313,14.3,17.6,70,0.00,,,0.00,0.00,VWS V14.01,2013-01-20 11:29:00,
2013-01-20 05:32:00,16.1,8.1,30.24,WNW,291,8.8,15.4,70,0.00,,,0.00,0.00,VWS V14.01,2013-01-20 11:32:00,
2013-01-20 05:33:00,16.0,8.0,30.24,NW,305,11.0,14.3,70,0.00,,,0.00,0.00,VWS V14.01,2013-01-20 11:33:00,
2013-01-20 05:35:00,16.0,8.3,30.24,NW,306,14.3,24.2,71,0.00,,,0.00,0.00,VWS V14.01,2013-01-20 11:35:00,
2013-01-20 05:37:00,15.9,8.2,30.24,WNW,287,17.6,19.8,71,0.00,,,0.00,0.00,VWS V14.01,2013-01-20 11:37:00,
2013-01-20 05:39:00,15.9,8.2,30.24,WNW,295,15.4,17.6,71,0.00,,,0.00,0.00,VWS V14.01,2013-01-20 11:39:00,
2013-01-20 05:40:00,15.9,8.2,30.24,WNW,299,12.1,17.6,71,0.00,,,0.00,0.00,VWS V14.01,2013-01-20 11:40:00,
2013-01-20 05:43:00,15.8,8.1,30.24,NW,304,13.2,13.2,71,0.00,,,0.00,0.00,VWS V14.01,2013-01-20 11:43:00,
2013-01-20 05:44:00,15.8,8.1,30.24,WNW,297,18.7,18.7,71,0.00,,,0.00,0.00,VWS V14.01,2013-01-20 11:44:00,
2013-01-20 05:45:00,15.8,8.1,30.25,WNW,293,15.4,15.4,71,0.00,,,0.00,0.00,VWS V14.01,2013-01-20 11:45:00,
2013-01-20 05:49:00,15.8,8.4,30.25,WNW,282,13.2,17.6,72,0.00,,,0.00,0.00,VWS V14.01,2013-01-20 11:49:00,
2013-01-20 05:51:00,15.7,8.3,30.25,WNW,285,8.8,15.4,72,0.00,,,0.00,0.00,VWS V14.01,2013-01-20 11:51:00,
2013-01-20 05:55:00,15.6,7.9,30.25,WNW,300,12.1,15.4,71,0.00,,,0.00,0.00,VWS V14.01,2013-01-20 11:55:00,
2013-01-20 05:56:00,15.6,7.9,30.25,WNW,295,12.1,17.6,71,0.00,,,0.00,0.00,VWS V14.01,2013-01-20 11:56:00,
2013-01-20 05:57:00,15.6,7.9,30.25,NW,309,14.3,19.8,71,0.00,,,0.00,0.00,VWS V14.01,2013-01-20 11:57:00,
2013-01-20 06:01:00,15.6,7.9,30.25,WNW,298,9.9,17.6,71,0.00,,,0.00,0.00,VWS V14.01,2013-01-20 12:01:00,
2013-01-20 06:02:00,15.5,7.8,30.26,WNW,303,8.8,13.2,71,0.00,,,0.00,0.00,VWS V14.01,2013-01-20 12:02:00,
2013-01-20 06:07:00,15.5,7.8,30.26,NW,314,7.7,14.3,71,0.00,,,0.00,0.00,VWS V14.01,2013-01-20 12:07:00,
2013-01-20 06:08:00,15.5,8.1,30.26,WNW,291,11.0,13.2,72,0.00,,,0.00,0.00,VWS V14.01,2013-01-20 12:08:00,
2013-01-20 06:12:00,15.4,8.0,30.26,NW,325,18.7,18.7,72,0.00,,,0.00,0.00,VWS V14.01,2013-01-20 12:12:00,
2013-01-20 06:13:00,15.4,8.0,30.26,WNW,285,13.2,23.1,72,0.00,,,0.00,0.00,VWS V14.01,2013-01-20 12:13:00,
2013-01-20 06:14:00,15.4,8.0,30.26,West,279,9.9,15.4,72,0.00,,,0.00,0.00,VWS V14.01,2013-01-20 12:14:00,
2013-01-20 06:18:00,15.3,7.6,30.26,NW,314,9.9,13.2,71,0.00,,,0.00,0.00,VWS V14.01,2013-01-20 12:18:00,
2013-01-20 06:20:00,15.2,7.5,30.26,NW,308,16.5,17.6,71,0.00,,,0.00,0.00,VWS V14.01,2013-01-20 12:20:00,
2013-01-20 06:23:00,15.1,7.4,30.26,WNW,296,7.7,14.3,71,0.00,,,0.00,0.00,VWS V14.01,2013-01-20 12:23:00,
2013-01-20 06:24:00,15.1,7.4,30.27,NW,312,8.8,14.3,71,0.00,,,0.00,0.00,VWS V14.01,2013-01-20 12:24:00,
2013-01-20 06:25:00,15.0,7.3,30.27,NW,307,12.1,12.1,71,0.00,,,0.00,0.00,VWS V14.01,2013-01-20 12:25:00,
2013-01-20 06:28:00,15.0,7.0,30.27,WNW,295,9.9,16.5,70,0.00,,,0.00,0.00,VWS V14.01,2013-01-20 12:28:00,
2013-01-20 06:29:00,15.0,7.0,30.27,NW,320,9.9,16.5,70,0.00,,,0.00,0.00,VWS V14.01,2013-01-20 12:29:00,
2013-01-20 06:31:00,14.9,6.9,30.27,WNW,294,12.1,18.7,70,0.00,,,0.00,0.00,VWS V14.01,2013-01-20 12:31:00,
2013-01-20 06:34:00,14.9,6.9,30.27,NW,312,7.7,17.6,70,0.00,,,0.00,0.00,VWS V14.01,2013-01-20 12:34:00,
2013-01-20 06:36:00,14.9,6.9,30.27,WNW,285,16.5,16.5,70,0.00,,,0.00,0.00,VWS V14.01,2013-01-20 12:36:00,
2013-01-20 06:39:00,14.9,7.2,30.27,WNW,300,8.8,16.5,71,0.00,,,0.00,0.00,VWS V14.01,2013-01-20 12:39:00,
2013-01-20 06:40:00,14.9,7.2,30.27,NW,311,8.8,15.4,71,0.00,,,0.00,0.00,VWS V14.01,2013-01-20 12:40:00,
2013-01-20 06:41:00,14.8,7.1,30.28,NW,311,7.7,14.3,71,0.00,,,0.00,0.00,VWS V14.01,2013-01-20 12:41:00,
2013-01-20 06:44:00,14.8,7.1,30.27,NW,311,11.0,14.3,71,0.00,,,0.00,0.00,VWS V14.01,2013-01-20 12:44:00,
2013-01-20 06:45:00,14.8,7.4,30.27,NW,312,8.8,14.3,72,0.00,,,0.00,0.00,VWS V14.01,2013-01-20 12:45:00,
2013-01-20 06:46:00,14.8,7.1,30.27,NW,307,17.6,17.6,71,0.00,,,0.00,0.00,VWS V14.01,2013-01-20 12:46:00,
2013-01-20 06:47:00,14.8,7.1,30.27,NW,320,16.5,17.6,71,0.00,,,0.00,0.00,VWS V14.01,2013-01-20 12:47:00,
2013-01-20 06:49:00,14.7,7.0,30.27,NNW,334,13.2,15.4,71,0.00,,,0.00,0.00,VWS V14.01,2013-01-20 12:49:00,
2013-01-20 06:51:00,14.7,7.0,30.27,WNW,294,14.3,16.5,71,0.00,,,0.00,0.00,VWS V14.01,2013-01-20 12:51:00,
2013-01-20 06:52:00,14.7,7.0,30.27,NW,304,14.3,15.4,71,0.00,,,0.00,0.00,VWS V14.01,2013-01-20 12:52:00,
2013-01-20 06:55:00,14.6,6.9,30.28,WNW,293,9.9,14.3,71,0.00,,,0.00,0.00,VWS V14.01,2013-01-20 12:55:00,
2013-01-20 06:56:00,14.6,6.9,30.28,WNW,299,13.2,16.5,71,0.00,,,0.00,0.00,VWS V14.01,2013-01-20 12:56:00,
2013-01-20 06:57:00,14.6,6.9,30.27,WNW,293,8.8,17.6,71,0.00,,,0.00,0.00,VWS V14.01,2013-01-20 12:57:00,
2013-01-20 07:01:00,14.6,6.9,30.27,WNW,292,12.1,14.3,71,0.00,,,0.00,0.00,VWS V14.01,2013-01-20 13:01:00,
2013-01-20 07:02:00,14.5,7.1,30.27,WNW,302,15.4,15.4,72,0.00,,,0.00,0.00,VWS V14.01,2013-01-20 13:02:00,
2013-01-20 07:06:00,14.5,7.1,30.28,West,280,8.8,11.0,72,0.00,,,0.00,0.00,VWS V14.01,2013-01-20 13:06:00,
2013-01-20 07:07:00,14.5,7.1,30.28,WNW,288,13.2,13.2,72,0.00,,,0.00,0.00,VWS V14.01,2013-01-20 13:07:00,
2013-01-20 07:11:00,14.4,7.3,30.28,NW,308,6.6,12.1,73,0.00,,,0.00,0.00,VWS V14.01,2013-01-20 13:11:00,
2013-01-20 07:12:00,14.4,7.3,30.29,NW,314,14.3,14.3,73,0.00,,,0.00,0.00,VWS V14.01,2013-01-20 13:12:00,
2013-01-20 07:13:00,14.4,7.6,30.29,NW,316,11.0,15.4,74,0.00,,,0.00,0.00,VWS V14.01,2013-01-20 13:13:00,
2013-01-20 07:17:00,14.3,6.9,30.29,NW,316,16.5,17.6,72,0.00,,,0.00,5.00,VWS V14.01,2013-01-20 13:17:00,
2013-01-20 07:18:00,14.3,6.9,30.29,NW,316,9.9,14.3,72,0.00,,,0.00,5.00,VWS V14.01,2013-01-20 13:18:00,
2013-01-20 07:19:00,14.3,6.9,30.29,WNW,295,9.9,14.3,72,0.00,,,0.00,5.00,VWS V14.01,2013-01-20 13:19:00,
2013-01-20 07:23:00,14.2,6.5,30.29,WNW,287,19.8,19.8,71,0.00,,,0.00,7.00,VWS V14.01,2013-01-20 13:23:00,
2013-01-20 07:24:00,14.2,6.5,30.29,WNW,292,9.9,18.7,71,0.00,,,0.00,9.00,VWS V14.01,2013-01-20 13:24:00,
2013-01-20 07:25:00,14.2,6.5,30.30,NW,316,9.9,17.6,71,0.00,,,0.00,9.00,VWS V14.01,2013-01-20 13:25:00,
2013-01-20 07:28:00,14.2,6.5,30.30,NW,314,15.4,17.6,71,0.00,,,0.00,11.00,VWS V14.01,2013-01-20 13:28:00,
2013-01-20 07:29:00,14.2,6.5,30.30,WNW,293,13.2,18.7,71,0.00,,,0.00,11.00,VWS V14.01,2013-01-20 13:29:00,
2013-01-20 07:30:00,14.1,6.4,30.30,WNW,282,9.9,15.4,71,0.00,,,0.00,11.00,VWS V14.01,2013-01-20 13:30:00,
2013-01-20 07:33:00,14.1,6.4,30.30,WNW,303,12.1,12.1,71,0.00,,,0.00,12.00,VWS V14.01,2013-01-20 13:33:00,
2013-01-20 07:34:00,14.1,6.4,30.30,WNW,295,14.3,14.3,71,0.00,,,0.00,12.00,VWS V14.01,2013-01-20 13:34:00,
2013-01-20 07:35:00,14.1,6.4,30.30,WNW,303,14.3,18.7,71,0.00,,,0.00,12.00,VWS V14.01,2013-01-20 13:35:00,
2013-01-20 07:38:00,14.2,6.8,30.30,NW,307,11.0,15.4,72,0.00,,,0.00,14.00,VWS V14.01,2013-01-20 13:38:00,
2013-01-20 07:39:00,14.2,6.8,30.30,West,281,9.9,12.1,72,0.00,,,0.00,16.00,VWS V14.01,2013-01-20 13:39:00,
2013-01-20 07:40:00,14.2,6.8,30.30,WNW,285,7.7,12.1,72,0.00,,,0.00,16.00,VWS V14.01,2013-01-20 13:40:00,
2013-01-20 07:44:00,14.3,6.9,30.31,WNW,302,13.2,13.2,72,0.00,,,0.00,18.00,VWS V14.01,2013-01-20 13:44:00,
2013-01-20 07:45:00,14.3,6.9,30.31,NW,310,8.8,13.2,72,0.00,,,0.00,18.00,VWS V14.01,2013-01-20 13:45:00,
2013-01-20 07:47:00,14.3,6.9,30.31,WNW,296,14.3,17.6,72,0.00,,,0.00,18.00,VWS V14.01,2013-01-20 13:47:00,
2013-01-20 07:50:00,14.3,6.6,30.31,WNW,295,14.3,17.6,71,0.00,,,0.00,19.00,VWS V14.01,2013-01-20 13:50:00,
2013-01-20 07:52:00,14.4,6.7,30.31,NW,312,9.9,9.9,71,0.00,,,0.00,21.00,VWS V14.01,2013-01-20 13:52:00,
2013-01-20 07:55:00,14.4,6.7,30.31,WNW,299,9.9,11.0,71,0.00,,,0.00,21.00,VWS V14.01,2013-01-20 13:55:00,
2013-01-20 07:57:00,14.4,7.0,30.32,NW,322,7.7,13.2,72,0.00,,,0.00,21.00,VWS V14.01,2013-01-20 13:57:00,
2013-01-20 08:00:00,14.5,7.1,30.32,NW,309,12.1,12.1,72,0.00,,,0.00,23.00,VWS V14.01,2013-01-20 14:00:00,
2013-01-20 08:01:00,14.5,7.1,30.32,WNW,289,9.9,12.1,72,0.00,,,0.00,26.00,VWS V14.01,2013-01-20 14:01:00,
2013-01-20 08:03:00,14.6,7.2,30.32,NW,306,15.4,15.4,72,0.00,,,0.00,35.00,VWS V14.01,2013-01-20 14:03:00,
2013-01-20 08:06:00,14.6,7.2,30.32,NW,313,12.1,14.3,72,0.00,,,0.00,35.00,VWS V14.01,2013-01-20 14:06:00,
2013-01-20 08:09:00,14.7,7.3,30.32,WNW,297,26.4,26.4,72,0.00,,,0.00,37.00,VWS V14.01,2013-01-20 14:09:00,
2013-01-20 08:11:00,14.6,6.9,30.32,WNW,301,16.5,16.5,71,0.00,,,0.00,47.00,VWS V14.01,2013-01-20 14:11:00,
2013-01-20 08:12:00,14.7,7.0,30.32,WNW,287,7.7,16.5,71,0.00,,,0.00,47.00,VWS V14.01,2013-01-20 14:12:00,
2013-01-20 08:14:00,14.7,7.0,30.32,WNW,299,9.9,11.0,71,0.00,,,0.00,53.00,VWS V14.01,2013-01-20 14:14:00,
2013-01-20 08:17:00,14.8,6.8,30.32,NW,313,16.5,16.5,70,0.00,,,0.00,47.00,VWS V14.01,2013-01-20 14:17:00,
2013-01-20 08:19:00,14.8,6.8,30.32,NW,314,17.6,17.6,70,0.00,,,0.00,39.00,VWS V14.01,2013-01-20 14:19:00,
2013-01-20 08:22:00,14.7,6.7,30.32,NW,318,6.6,14.3,70,0.00,,,0.00,35.00,VWS V14.01,2013-01-20 14:22:00,
2013-01-20 08:23:00,14.7,6.7,30.32,NW,304,9.9,11.0,70,0.00,,,0.00,33.00,VWS V14.01,2013-01-20 14:23:00,
2013-01-20 08:24:00,14.7,6.7,30.32,NW,312,11.0,14.3,70,0.00,,,0.00,33.00,VWS V14.01,2013-01-20 14:24:00,
2013-01-20 08:27:00,14.6,6.6,30.32,WNW,291,12.1,16.5,70,0.00,,,0.00,40.00,VWS V14.01,2013-01-20 14:27:00,
2013-01-20 08:28:00,14.6,6.6,30.32,NW,319,15.4,17.6,70,0.00,,,0.00,42.00,VWS V14.01,2013-01-20 14:28:00,
2013-01-20 08:29:00,14.6,6.6,30.32,WNW,300,14.3,17.6,70,0.00,,,0.00,42.00,VWS V14.01,2013-01-20 14:29:00,
2013-01-20 08:30:00,14.6,6.6,30.32,NW,318,11.0,13.2,70,0.00,,,0.00,47.00,VWS V14.01,2013-01-20 14:30:00,
2013-01-20 08:33:00,14.6,6.9,30.33,WNW,289,8.8,13.2,71,0.00,,,0.00,63.00,VWS V14.01,2013-01-20 14:33:00,
2013-01-20 08:34:00,14.7,7.0,30.33,NW,307,8.8,13.2,71,0.00,,,0.00,63.00,VWS V14.01,2013-01-20 14:34:00,
2013-01-20 08:36:00,14.9,7.5,30.33,WNW,297,11.0,20.9,72,0.00,,,0.00,63.00,VWS V14.01,2013-01-20 14:36:00,
2013-01-20 08:38:00,15.0,7.3,30.33,NW,307,13.2,16.5,71,0.00,,,0.00,60.00,VWS V14.01,2013-01-20 14:38:00,
2013-01-20 08:39:00,15.0,7.3,30.33,NW,321,7.7,16.5,71,0.00,,,0.00,60.00,VWS V14.01,2013-01-20 14:39:00,
2013-01-20 08:42:00,14.9,6.6,30.33,NNW,336,11.0,13.2,69,0.00,,,0.00,60.00,VWS V14.01,2013-01-20 14:42:00,
2013-01-20 08:44:00,15.0,6.7,30.33,WNW,295,12.1,15.4,69,0.00,,,0.00,67.00,VWS V14.01,2013-01-20 14:44:00,
2013-01-20 08:47:00,15.0,6.7,30.33,NW,304,9.9,9.9,69,0.00,,,0.00,69.00,VWS V14.01,2013-01-20 14:47:00,
2013-01-20 08:49:00,15.0,6.7,30.33,NW,307,8.8,11.0,69,0.00,,,0.00,51.00,VWS V14.01,2013-01-20 14:49:00,
2013-01-20 08:50:00,15.0,6.7,30.33,NW,312,13.2,17.6,69,0.00,,,0.00,49.00,VWS V14.01,2013-01-20 14:50:00,
2013-01-20 08:53:00,15.0,6.7,30.33,WNW,299,9.9,17.6,69,0.00,,,0.00,44.00,VWS V14.01,2013-01-20 14:53:00,
2013-01-20 08:54:00,15.0,6.7,30.33,WNW,303,14.3,15.4,69,0.00,,,0.00,37.00,VWS V14.01,2013-01-20 14:54:00,
2013-01-20 08:55:00,15.0,6.7,30.33,WNW,301,12.1,15.4,69,0.00,,,0.00,35.00,VWS V14.01,2013-01-20 14:55:00,
2013-01-20 08:58:00,15.0,7.0,30.33,NW,311,14.3,15.4,70,0.00,,,0.00,37.00,VWS V14.01,2013-01-20 14:58:00,
2013-01-20 09:00:00,15.0,7.0,30.33,NW,318,9.9,16.5,70,0.00,,,0.00,49.00,VWS V14.01,2013-01-20 15:00:00,
2013-01-20 09:04:00,15.1,7.1,30.33,NW,314,12.1,13.2,70,0.00,,,0.00,37.00,VWS V14.01,2013-01-20 15:04:00,
2013-01-20 09:05:00,15.1,7.1,30.33,WNW,292,8.8,12.1,70,0.00,,,0.00,37.00,VWS V14.01,2013-01-20 15:05:00,
2013-01-20 09:06:00,15.2,7.2,30.33,NW,311,13.2,13.2,70,0.00,,,0.00,37.00,VWS V14.01,2013-01-20 15:06:00,
2013-01-20 09:09:00,15.4,7.4,30.33,West,275,8.8,11.0,70,0.00,,,0.00,77.00,VWS V14.01,2013-01-20 15:09:00,
2013-01-20 09:10:00,15.5,7.5,30.33,NW,312,7.7,12.1,70,0.00,,,0.00,70.00,VWS V14.01,2013-01-20 15:10:00,
2013-01-20 09:11:00,15.5,7.5,30.33,NW,310,16.5,16.5,70,0.00,,,0.00,42.00,VWS V14.01,2013-01-20 15:11:00,
2013-01-20 09:12:00,15.7,7.7,30.33,NW,324,12.1,13.2,70,0.00,,,0.00,35.00,VWS V14.01,2013-01-20 15:12:00,
2013-01-20 09:15:00,15.6,7.3,30.33,NW,322,12.1,12.1,69,0.00,,,0.00,35.00,VWS V14.01,2013-01-20 15:15:00,
2013-01-20 09:16:00,15.6,7.3,30.34,WNW,303,13.2,13.2,69,0.00,,,0.00,33.00,VWS V14.01,2013-01-20 15:16:00,
2013-01-20 09:17:00,15.6,7.3,30.34,NW,313,12.1,14.3,69,0.00,,,0.00,35.00,VWS V14.01,2013-01-20 15:17:00,
2013-01-20 09:18:00,15.6,7.3,30.34,WNW,295,11.0,14.3,69,0.00,,,0.00,39.00,VWS V14.01,2013-01-20 15:18:00,
2013-01-20 09:21:00,15.6,7.3,30.34,WNW,299,13.2,15.4,69,0.00,,,0.00,35.00,VWS V14.01,2013-01-20 15:21:00,
2013-01-20 09:22:00,15.7,7.3,30.34,WNW,303,11.0,17.6,69,0.00,,,0.00,35.00,VWS V14.01,2013-01-20 15:22:00,
2013-01-20 09:24:00,15.7,7.3,30.34,NW,320,11.0,13.2,69,0.00,,,0.00,33.00,VWS V14.01,2013-01-20 15:24:00,
2013-01-20 09:26:00,15.8,7.8,30.34,WNW,286,8.8,14.3,70,0.00,,,0.00,33.00,VWS V14.01,2013-01-20 15:26:00,
2013-01-20 09:27:00,15.9,7.9,30.34,NW,325,9.9,11.0,70,0.00,,,0.00,33.00,VWS V14.01,2013-01-20 15:27:00,
2013-01-20 09:29:00,16.0,8.0,30.34,WNW,300,12.1,12.1,70,0.00,,,0.00,32.00,VWS V14.01,2013-01-20 15:29:00,
2013-01-20 09:31:00,16.1,8.1,30.34,WNW,291,11.0,13.2,70,0.00,,,0.00,32.00,VWS V14.01,2013-01-20 15:31:00,
2013-01-20 09:32:00,16.2,8.1,30.34,NW,308,13.2,13.2,70,0.00,,,0.00,33.00,VWS V14.01,2013-01-20 15:32:00,
2013-01-20 09:34:00,16.4,8.0,30.35,WNW,295,9.9,9.9,69,0.00,,,0.00,32.00,VWS V14.01,2013-01-20 15:34:00,
2013-01-20 09:35:00,16.4,8.0,30.35,NW,318,7.7,8.8,69,0.00,,,0.00,33.00,VWS V14.01,2013-01-20 15:35:00,
2013-01-20 09:36:00,16.4,7.7,30.35,NW,304,11.0,11.0,68,0.00,,,0.00,56.00,VWS V14.01,2013-01-20 15:36:00,
2013-01-20 09:37:00,16.4,8.0,30.35,West,264,7.7,11.0,69,0.00,,,0.00,56.00,VWS V14.01,2013-01-20 15:37:00,
2013-01-20 09:39:00,16.5,8.1,30.35,West,273,9.9,14.3,69,0.00,,,0.00,33.00,VWS V14.01,2013-01-20 15:39:00,
2013-01-20 09:41:00,16.6,7.9,30.35,WNW,303,9.9,14.3,68,0.00,,,0.00,32.00,VWS V14.01,2013-01-20 15:41:00,
2013-01-20 09:42:00,16.6,8.2,30.35,North,354,9.9,12.1,69,0.00,,,0.00,33.00,VWS V14.01,2013-01-20 15:42:00,
2013-01-20 09:45:00,16.8,8.1,30.35,WNW,296,11.0,13.2,68,0.00,,,0.00,32.00,VWS V14.01,2013-01-20 15:45:00,
2013-01-20 09:46:00,16.8,8.1,30.35,NW,320,11.0,11.0,68,0.00,,,0.00,32.00,VWS V14.01,2013-01-20 15:46:00,
2013-01-20 09:47:00,16.8,8.1,30.35,NW,306,7.7,11.0,68,0.00,,,0.00,32.00,VWS V14.01,2013-01-20 15:47:00,
2013-01-20 09:50:00,16.8,7.8,30.35,WNW,287,14.3,14.3,67,0.00,,,0.00,32.00,VWS V14.01,2013-01-20 15:50:00,
2013-01-20 09:52:00,16.8,7.8,30.35,WNW,298,12.1,15.4,67,0.00,,,0.00,32.00,VWS V14.01,2013-01-20 15:52:00,
2013-01-20 09:53:00,16.8,7.4,30.35,WNW,301,17.6,17.6,66,0.00,,,0.00,33.00,VWS V14.01,2013-01-20 15:53:00,
2013-01-20 09:56:00,16.7,7.0,30.35,NW,308,14.3,14.3,65,0.00,,,0.00,32.00,VWS V14.01,2013-01-20 15:56:00,
2013-01-20 09:57:00,16.7,7.0,30.35,WNW,299,12.1,14.3,65,0.00,,,0.00,28.00,VWS V14.01,2013-01-20 15:57:00,
2013-01-20 09:58:00,16.7,7.0,30.35,NW,320,6.6,14.3,65,0.00,,,0.00,32.00,VWS V14.01,2013-01-20 15:58:00,
2013-01-20 09:59:00,16.7,7.0,30.35,WNW,303,11.0,13.2,65,0.00,,,0.00,32.00,VWS V14.01,2013-01-20 15:59:00,
2013-01-20 10:01:00,16.7,7.0,30.35,NW,322,14.3,14.3,65,0.00,,,0.00,32.00,VWS V14.01,2013-01-20 16:01:00,
2013-01-20 10:02:00,16.7,7.0,30.35,NW,304,8.8,9.9,65,0.00,,,0.00,32.00,VWS V14.01,2013-01-20 16:02:00,
2013-01-20 10:04:00,16.8,7.4,30.35,NW,304,5.5,12.1,66,0.00,,,0.00,32.00,VWS V14.01,2013-01-20 16:04:00,
2013-01-20 10:07:00,17.0,7.3,30.35,NNW,330,13.2,15.4,65,0.00,,,0.00,32.00,VWS V14.01,2013-01-20 16:07:00,
2013-01-20 10:09:00,17.2,7.8,30.35,West,278,11.0,11.0,66,0.00,,,0.00,32.00,VWS V14.01,2013-01-20 16:09:00,
2013-01-20 10:10:00,17.2,7.8,30.35,NW,307,8.8,11.0,66,0.00,,,0.00,33.00,VWS V14.01,2013-01-20 16:10:00,
2013-01-20 10:12:00,17.5,8.1,30.35,WNW,303,9.9,12.1,66,0.00,,,0.00,37.00,VWS V14.01,2013-01-20 16:12:00,
2013-01-20 10:14:00,17.6,7.8,30.35,WNW,295,6.6,7.7,65,0.00,,,0.00,35.00,VWS V14.01,2013-01-20 16:14:00,
2013-01-20 10:15:00,17.7,8.3,30.35,NW,324,5.5,11.0,66,0.00,,,0.00,35.00,VWS V14.01,2013-01-20 16:15:00,
2013-01-20 10:18:00,17.7,8.3,30.35,NW,305,7.7,13.2,66,0.00,,,0.00,35.00,VWS V14.01,2013-01-20 16:18:00,
2013-01-20 10:20:00,17.8,8.0,30.35,NW,314,8.8,8.8,65,0.00,,,0.00,40.00,VWS V14.01,2013-01-20 16:20:00,
2013-01-20 10:21:00,17.9,8.1,30.35,NW,311,16.5,16.5,65,0.00,,,0.00,37.00,VWS V14.01,2013-01-20 16:21:00,
2013-01-20 10:23:00,17.9,8.1,30.35,NW,322,12.1,12.1,65,0.00,,,0.00,39.00,VWS V14.01,2013-01-20 16:23:00,
2013-01-20 10:25:00,17.9,8.1,30.35,NW,326,9.9,9.9,65,0.00,,,0.00,37.00,VWS V14.01,2013-01-20 16:25:00,
2013-01-20 10:26:00,17.9,8.1,30.35,WNW,288,6.6,6.6,65,0.00,,,0.00,35.00,VWS V14.01,2013-01-20 16:26:00,
2013-01-20 10:27:00,17.9,7.8,30.35,NW,316,9.9,14.3,64,0.00,,,0.00,35.00,VWS V14.01,2013-01-20 16:27:00,
2013-01-20 10:29:00,18.1,8.0,30.34,WNW,296,12.1,14.3,64,0.00,,,0.00,39.00,VWS V14.01,2013-01-20 16:29:00,
2013-01-20 10:30:00,18.1,8.0,30.34,NW,316,12.1,12.1,64,0.00,,,0.00,40.00,VWS V14.01,2013-01-20 16:30:00,
2013-01-20 10:31:00,18.1,8.0,30.34,NW,324,5.5,8.8,64,0.00,,,0.00,37.00,VWS V14.01,2013-01-20 16:31:00,
2013-01-20 10:32:00,18.3,8.5,30.34,NW,324,7.7,8.8,65,0.00,,,0.00,37.00,VWS V14.01,2013-01-20 16:32:00,
2013-01-20 10:34:00,18.4,8.6,30.34,WNW,293,14.3,14.3,65,0.00,,,0.00,37.00,VWS V14.01,2013-01-20 16:34:00,
2013-01-20 10:36:00,18.5,8.0,30.34,NW,322,11.0,11.0,63,0.00,,,0.00,40.00,VWS V14.01,2013-01-20 16:36:00,
2013-01-20 10:37:00,18.5,8.0,30.34,NNW,332,12.1,12.1,63,0.00,,,0.00,44.00,VWS V14.01,2013-01-20 16:37:00,
2013-01-20 10:39:00,18.5,8.0,30.34,WNW,298,8.8,12.1,63,0.00,,,0.00,49.00,VWS V14.01,2013-01-20 16:39:00,
2013-01-20 10:41:00,18.6,7.8,30.34,NW,305,8.8,12.1,62,0.00,,,0.00,65.00,VWS V14.01,2013-01-20 16:41:00,
2013-01-20 10:42:00,18.5,8.0,30.34,NNW,337,3.3,6.6,63,0.00,,,0.00,74.00,VWS V14.01,2013-01-20 16:42:00,
2013-01-20 10:43:00,18.5,8.0,30.34,NW,304,3.3,6.6,63,0.00,,,0.00,74.00,VWS V14.01,2013-01-20 16:43:00,
2013-01-20 10:44:00,18.8,8.6,30.34,NW,319,7.7,12.1,64,0.00,,,0.00,86.00,VWS V14.01,2013-01-20 16:44:00,
2013-01-20 10:46:00,18.9,8.4,30.34,NW,319,8.8,12.1,63,0.00,,,0.00,141.00,VWS V14.01,2013-01-20 16:46:00,
2013-01-20 10:48:00,19.1,8.2,30.34,NW,311,12.1,12.1,62,0.00,,,0.00,148.00,VWS V14.01,2013-01-20 16:48:00,
2013-01-20 10:49:00,19.3,8.8,30.34,NNW,327,9.9,11.0,63,0.00,,,0.00,134.00,VWS V14.01,2013-01-20 16:49:00,
2013-01-20 10:52:00,19.3,8.8,30.33,NW,304,7.7,7.7,63,0.00,,,0.00,144.00,VWS V14.01,2013-01-20 16:52:00,
2013-01-20 10:53:00,19.4,8.9,30.33,WNW,297,8.8,8.8,63,0.00,,,0.00,144.00,VWS V14.01,2013-01-20 16:53:00,
2013-01-20 10:54:00,19.6,9.1,30.33,NW,309,11.0,11.0,63,0.00,,,0.00,151.00,VWS V14.01,2013-01-20 16:54:00,
2013-01-20 10:57:00,19.7,8.4,30.33,West,280,6.6,9.9,61,0.00,,,0.00,171.00,VWS V14.01,2013-01-20 16:57:00,
2013-01-20 10:58:00,19.6,8.4,30.33,WNW,291,4.4,7.7,61,0.00,,,0.00,167.00,VWS V14.01,2013-01-20 16:58:00,
2013-01-20 10:59:00,19.5,8.3,30.33,NW,324,7.7,8.8,61,0.00,,,0.00,167.00,VWS V14.01,2013-01-20 16:59:00,
2013-01-20 11:03:00,20.2,9.6,30.33,WNW,299,14.3,19.8,63,0.00,,,0.00,130.00,VWS V14.01,2013-01-20 17:03:00,
2013-01-20 11:04:00,20.3,9.7,30.33,WNW,296,11.0,19.8,63,0.00,,,0.00,130.00,VWS V14.01,2013-01-20 17:04:00,
2013-01-20 11:05:00,20.1,9.2,30.33,WNW,299,13.2,13.2,62,0.00,,,0.00,156.00,VWS V14.01,2013-01-20 17:05:00,
2013-01-20 11:09:00,19.4,8.2,30.33,WNW,295,8.8,11.0,61,0.00,,,0.00,118.00,VWS V14.01,2013-01-20 17:09:00,
2013-01-20 11:10:00,19.4,8.5,30.33,NW,314,8.8,11.0,62,0.00,,,0.00,83.00,VWS V14.01,2013-01-20 17:10:00,
2013-01-20 11:14:00,20.0,8.7,30.33,WNW,296,6.6,9.9,61,0.00,,,0.00,104.00,VWS V14.01,2013-01-20 17:14:00,
2013-01-20 11:15:00,19.9,8.6,30.33,WNW,298,13.2,13.2,61,0.00,,,0.00,142.00,VWS V14.01,2013-01-20 17:15:00,
2013-01-20 11:16:00,19.9,8.6,30.33,WNW,292,12.1,13.2,61,0.00,,,0.00,165.00,VWS V14.01,2013-01-20 17:16:00,
2013-01-20 11:20:00,20.2,8.6,30.33,NW,314,9.9,9.9,60,0.00,,,0.00,181.00,VWS V14.01,2013-01-20 17:20:00,
2013-01-20 11:21:00,20.1,8.1,30.33,NW,308,8.8,12.1,59,0.00,,,0.00,142.00,VWS V14.01,2013-01-20 17:21:00,
2013-01-20 11:22:00,20.1,8.1,30.33,WNW,295,3.3,8.8,59,0.00,,,0.00,169.00,VWS V14.01,2013-01-20 17:22:00,
2013-01-20 11:25:00,20.0,8.7,30.33,West,279,13.2,14.3,61,0.00,,,0.00,232.00,VWS V14.01,2013-01-20 17:25:00,
2013-01-20 11:26:00,19.8,8.5,30.33,WNW,290,7.7,13.2,61,0.00,,,0.00,232.00,VWS V14.01,2013-01-20 17:26:00,
2013-01-20 11:27:00,19.8,8.5,30.33,WNW,299,8.8,11.0,61,0.00,,,0.00,232.00,VWS V14.01,2013-01-20 17:27:00,
2013-01-20 11:30:00,19.9,8.6,30.33,NW,317,9.9,14.3,61,0.00,,,0.00,181.00,VWS V14.01,2013-01-20 17:30:00,
2013-01-20 11:32:00,20.5,9.6,30.33,WNW,286,9.9,15.4,62,0.00,,,0.00,176.00,VWS V14.01,2013-01-20 17:32:00,
2013-01-20 11:35:00,20.9,9.9,30.33,NW,318,12.1,13.2,62,0.00,,,0.00,174.00,VWS V14.01,2013-01-20 17:35:00,
2013-01-20 11:37:00,20.9,9.2,30.33,WNW,302,7.7,14.3,60,0.00,,,0.00,192.00,VWS V14.01,2013-01-20 17:37:00,
2013-01-20 11:38:00,21.0,9.3,30.33,WNW,302,7.7,8.8,60,0.00,,,0.00,155.00,VWS V14.01,2013-01-20 17:38:00,
2013-01-20 11:42:00,21.2,9.5,30.33,WNW,301,8.8,11.0,60,0.00,,,0.00,206.00,VWS V14.01,2013-01-20 17:42:00,
2013-01-20 11:43:00,21.3,9.6,30.33,NW,308,8.8,11.0,60,0.00,,,0.00,171.00,VWS V14.01,2013-01-20 17:43:00,
2013-01-20 11:47:00,20.8,9.1,30.32,NW,325,7.7,11.0,60,0.00,,,0.00,195.00,VWS V14.01,2013-01-20 17:47:00,
2013-01-20 11:48:00,20.8,9.1,30.32,NNW,334,7.7,11.0,60,0.00,,,0.00,195.00,VWS V14.01,2013-01-20 17:48:00,
2013-01-20 11:53:00,20.8,8.8,30.32,NW,308,8.8,12.1,59,0.00,,,0.00,244.00,VWS V14.01,2013-01-20 17:53:00,
2013-01-20 11:54:00,20.8,8.8,30.32,West,264,14.3,19.8,59,0.00,,,0.00,248.00,VWS V14.01,2013-01-20 17:54:00,
2013-01-20 11:58:00,20.9,8.8,30.33,NW,316,6.6,15.4,59,0.00,,,0.00,288.00,VWS V14.01,2013-01-20 17:58:00,
2013-01-20 11:59:00,20.9,8.8,30.33,WNW,292,7.7,15.4,59,0.00,,,0.00,288.00,VWS V14.01,2013-01-20 17:59:00,
2013-01-20 12:00:00,20.9,8.8,30.32,WNW,295,8.8,13.2,59,0.00,,,0.00,241.00,VWS V14.01,2013-01-20 18:00:00,
2013-01-20 12:03:00,21.1,9.0,30.32,West,275,7.7,11.0,59,0.00,,,0.00,227.00,VWS V14.01,2013-01-20 18:03:00,
2013-01-20 12:05:00,21.2,9.5,30.32,WNW,292,9.9,16.5,60,0.00,,,0.00,214.00,VWS V14.01,2013-01-20 18:05:00,
2013-01-20 12:09:00,21.5,9.8,30.32,WNW,302,12.1,13.2,60,0.00,,,0.00,272.00,VWS V14.01,2013-01-20 18:09:00,
2013-01-20 12:10:00,21.6,9.9,30.32,West,277,8.8,8.8,60,0.00,,,0.00,269.00,VWS V14.01,2013-01-20 18:10:00,
2013-01-20 12:11:00,21.6,9.9,30.32,WNW,293,15.4,15.4,60,0.00,,,0.00,243.00,VWS V14.01,2013-01-20 18:11:00,
2013-01-20 12:14:00,21.2,9.1,30.32,West,280,12.1,12.1,59,0.00,,,0.00,288.00,VWS V14.01,2013-01-20 18:14:00,
2013-01-20 12:15:00,21.2,9.1,30.32,WSW,255,7.7,11.0,59,0.00,,,0.00,257.00,VWS V14.01,2013-01-20 18:15:00,
2013-01-20 12:16:00,21.2,9.1,30.32,WNW,292,9.9,11.0,59,0.00,,,0.00,257.00,VWS V14.01,2013-01-20 18:16:00,
2013-01-20 12:17:00,21.3,9.2,30.31,NW,317,9.9,16.5,59,0.00,,,0.00,292.00,VWS V14.01,2013-01-20 18:17:00,
2013-01-20 12:20:00,21.0,8.6,30.31,West,271,11.0,13.2,58,0.00,,,0.00,336.00,VWS V14.01,2013-01-20 18:20:00,
2013-01-20 12:21:00,20.9,8.5,30.31,WNW,301,6.6,11.0,58,0.00,,,0.00,366.00,VWS V14.01,2013-01-20 18:21:00,
2013-01-20 12:22:00,21.2,9.1,30.31,West,276,9.9,12.1,59,0.00,,,0.00,420.00,VWS V14.01,2013-01-20 18:22:00,
2013-01-20 12:25:00,21.4,8.9,30.31,NW,308,11.0,12.1,58,0.00,,,0.00,323.00,VWS V14.01,2013-01-20 18:25:00,
2013-01-20 12:26:00,21.6,9.1,30.31,West,280,12.1,15.4,58,0.00,,,0.00,396.00,VWS V14.01,2013-01-20 18:26:00,
2013-01-20 12:28:00,21.9,9.4,30.31,WNW,284,7.7,11.0,58,0.00,,,0.00,436.00,VWS V14.01,2013-01-20 18:28:00,
2013-01-20 12:30:00,22.2,9.7,30.31,WNW,302,15.4,15.4,58,0.00,,,0.00,406.00,VWS V14.01,2013-01-20 18:30:00,
2013-01-20 12:31:00,22.3,9.8,30.31,WNW,285,13.2,15.4,58,0.00,,,0.00,459.00,VWS V14.01,2013-01-20 18:31:00,
2013-01-20 12:33:00,22.5,10.0,30.31,NW,309,6.6,13.2,58,0.00,,,0.00,362.00,VWS V14.01,2013-01-20 18:33:00,
2013-01-20 12:36:00,22.7,10.2,30.31,NNW,329,9.9,14.3,58,0.00,,,0.00,332.00,VWS V14.01,2013-01-20 18:36:00,
2013-01-20 12:37:00,22.7,9.8,30.31,NW,320,11.0,17.6,57,0.00,,,0.00,329.00,VWS V14.01,2013-01-20 18:37:00,
2013-01-20 12:39:00,22.6,9.7,30.31,WNW,295,14.3,16.5,57,0.00,,,0.00,283.00,VWS V14.01,2013-01-20 18:39:00,
2013-01-20 12:42:00,22.0,9.1,30.30,West,259,13.2,16.5,57,0.00,,,0.00,225.00,VWS V14.01,2013-01-20 18:42:00,
2013-01-20 12:45:00,21.5,9.0,30.30,NW,305,6.6,9.9,58,0.00,,,0.00,220.00,VWS V14.01,2013-01-20 18:45:00,
2013-01-20 12:47:00,21.5,9.4,30.30,WNW,282,7.7,7.7,59,0.00,,,0.00,209.00,VWS V14.01,2013-01-20 18:47:00,
2013-01-20 12:50:00,21.4,9.3,30.30,NW,308,6.6,11.0,59,0.00,,,0.00,192.00,VWS V14.01,2013-01-20 18:50:00,
2013-01-20 12:52:00,21.6,9.9,30.30,WNW,285,14.3,14.3,60,0.00,,,0.00,195.00,VWS V14.01,2013-01-20 18:52:00,
2013-01-20 12:53:00,21.6,9.5,30.30,WNW,287,9.9,11.0,59,0.00,,,0.00,195.00,VWS V14.01,2013-01-20 18:53:00,
2013-01-20 12:55:00,21.4,9.3,30.30,WNW,285,11.0,11.0,59,0.00,,,0.00,190.00,VWS V14.01,2013-01-20 18:55:00,
2013-01-20 12:57:00,21.5,9.8,30.30,NW,317,5.5,7.7,60,0.00,,,0.00,185.00,VWS V14.01,2013-01-20 18:57:00,
2013-01-20 12:58:00,21.5,9.4,30.30,West,274,4.4,8.8,59,0.00,,,0.00,186.00,VWS V14.01,2013-01-20 18:58:00,
2013-01-20 12:59:00,21.6,9.5,30.30,West,279,12.1,14.3,59,0.00,,,0.00,197.00,VWS V14.01,2013-01-20 18:59:00,
2013-01-20 13:00:00,21.4,8.9,30.30,WNW,288,13.2,13.2,58,0.00,,,0.00,190.00,VWS V14.01,2013-01-20 19:00:00,
2013-01-20 13:03:00,21.7,9.6,30.30,WNW,301,12.1,14.3,59,0.00,,,0.00,179.00,VWS V14.01,2013-01-20 19:03:00,
2013-01-20 13:04:00,21.6,9.5,30.30,NW,315,9.9,14.3,59,0.00,,,0.00,179.00,VWS V14.01,2013-01-20 19:04:00,
2013-01-20 13:05:00,21.5,9.0,30.31,NW,304,5.5,6.6,58,0.00,,,0.00,181.00,VWS V14.01,2013-01-20 19:05:00,
2013-01-20 13:09:00,21.6,9.9,30.31,NNW,335,7.7,16.5,60,0.00,,,0.00,181.00,VWS V14.01,2013-01-20 19:09:00,
2013-01-20 13:11:00,21.6,9.5,30.31,NW,308,8.8,15.4,59,0.00,,,0.00,185.00,VWS V14.01,2013-01-20 19:11:00,
2013-01-20 13:14:00,21.6,10.2,30.31,WNW,286,8.8,12.1,61,0.00,,,0.00,176.00,VWS V14.01,2013-01-20 19:14:00,
2013-01-20 13:17:00,21.8,10.1,30.31,West,265,6.6,11.0,60,0.00,,,0.00,190.00,VWS V14.01,2013-01-20 19:17:00,
2013-01-20 13:19:00,21.7,9.6,30.31,WNW,297,7.7,9.9,59,0.00,,,0.00,174.00,VWS V14.01,2013-01-20 19:19:00,
2013-01-20 13:22:00,21.7,9.6,30.30,West,268,3.3,7.7,59,0.00,,,0.00,179.00,VWS V14.01,2013-01-20 19:22:00,
2013-01-20 13:24:00,21.7,9.6,30.31,NW,307,11.0,12.1,59,0.00,,,0.00,174.00,VWS V14.01,2013-01-20 19:24:00,
2013-01-20 13:25:00,21.7,9.6,30.31,West,270,11.0,11.0,59,0.00,,,0.00,162.00,VWS V14.01,2013-01-20 19:25:00,
2013-01-20 13:27:00,21.6,9.1,30.31,WNW,282,8.8,8.8,58,0.00,,,0.00,153.00,VWS V14.01,2013-01-20 19:27:00,
2013-01-20 13:29:00,21.6,9.5,30.31,WNW,292,6.6,11.0,59,0.00,,,0.00,151.00,VWS V14.01,2013-01-20 19:29:00,
2013-01-20 13:30:00,21.5,9.4,30.31,WNW,295,6.6,7.7,59,0.00,,,0.00,153.00,VWS V14.01,2013-01-20 19:30:00,
2013-01-20 13:31:00,21.5,9.4,30.31,NW,310,11.0,11.0,59,0.00,,,0.00,153.00,VWS V14.01,2013-01-20 19:31:00,
2013-01-20 13:32:00,21.5,9.4,30.31,WNW,283,4.4,12.1,59,0.00,,,0.00,156.00,VWS V14.01,2013-01-20 19:32:00,
2013-01-20 13:34:00,21.5,9.4,30.31,WNW,291,12.1,14.3,59,0.00,,,0.00,155.00,VWS V14.01,2013-01-20 19:34:00,
2013-01-20 13:35:00,21.5,9.0,30.31,WNW,300,14.3,15.4,58,0.00,,,0.00,149.00,VWS V14.01,2013-01-20 19:35:00,
2013-01-20 13:37:00,21.4,8.9,30.31,WNW,283,11.0,17.6,58,0.00,,,0.00,153.00,VWS V14.01,2013-01-20 19:37:00,
2013-01-20 13:38:00,21.3,8.8,30.31,NW,319,8.8,8.8,58,0.00,,,0.00,142.00,VWS V14.01,2013-01-20 19:38:00,
2013-01-20 13:39:00,21.3,9.2,30.31,NW,311,6.6,7.7,59,0.00,,,0.00,151.00,VWS V14.01,2013-01-20 19:39:00,
2013-01-20 13:40:00,21.3,9.2,30.31,WNW,283,12.1,12.1,59,0.00,,,0.00,156.00,VWS V14.01,2013-01-20 19:40:00,
2013-01-20 13:42:00,21.5,9.4,30.31,NW,317,8.8,8.8,59,0.00,,,0.00,163.00,VWS V14.01,2013-01-20 19:42:00,
2013-01-20 13:44:00,21.6,9.5,30.31,WNW,293,9.9,14.3,59,0.00,,,0.00,183.00,VWS V14.01,2013-01-20 19:44:00,
2013-01-20 13:45:00,21.5,9.0,30.31,NW,304,13.2,13.2,58,0.00,,,0.00,181.00,VWS V14.01,2013-01-20 19:45:00,
2013-01-20 13:47:00,21.4,8.9,30.31,NNW,336,7.7,7.7,58,0.00,,,0.00,193.00,VWS V14.01,2013-01-20 19:47:00,
2013-01-20 13:49:00,21.3,9.2,30.31,WNW,297,12.1,12.1,59,0.00,,,0.00,178.00,VWS V14.01,2013-01-20 19:49:00,
2013-01-20 13:51:00,21.3,9.2,30.31,WNW,298,12.1,13.2,59,0.00,,,0.00,185.00,VWS V14.01,2013-01-20 19:51:00,
2013-01-20 13:52:00,21.4,8.9,30.31,WNW,291,11.0,11.0,58,0.00,,,0.00,188.00,VWS V14.01,2013-01-20 19:52:00,
2013-01-20 13:54:00,21.4,9.3,30.31,West,265,9.9,9.9,59,0.00,,,0.00,192.00,VWS V14.01,2013-01-20 19:54:00,
2013-01-20 13:55:00,21.4,9.3,30.31,NNW,339,7.7,9.9,59,0.00,,,0.00,192.00,VWS V14.01,2013-01-20 19:55:00,
2013-01-20 13:56:00,21.4,9.3,30.31,NW,305,11.0,11.0,59,0.00,,,0.00,197.00,VWS V14.01,2013-01-20 19:56:00,
2013-01-20 13:58:00,21.3,9.2,30.31,WNW,285,4.4,8.8,59,0.00,,,0.00,204.00,VWS V14.01,2013-01-20 19:58:00,
2013-01-20 14:00:00,21.5,9.4,30.30,WNW,293,9.9,13.2,59,0.00,,,0.00,221.00,VWS V14.01,2013-01-20 20:00:00,
2013-01-20 14:01:00,21.5,9.8,30.30,WNW,299,12.1,12.1,60,0.00,,,0.00,232.00,VWS V14.01,2013-01-20 20:01:00,
2013-01-20 14:04:00,22.0,10.6,30.31,NW,314,12.1,12.1,61,0.00,,,0.00,264.00,VWS V14.01,2013-01-20 20:04:00,
2013-01-20 14:05:00,22.1,10.7,30.31,West,261,8.8,12.1,61,0.00,,,0.00,267.00,VWS V14.01,2013-01-20 20:05:00,
2013-01-20 14:07:00,22.2,10.4,30.30,West,262,6.6,9.9,60,0.00,,,0.00,279.00,VWS V14.01,2013-01-20 20:07:00,
2013-01-20 14:09:00,22.1,10.0,30.30,NW,308,6.6,9.9,59,0.00,,,0.00,239.00,VWS V14.01,2013-01-20 20:09:00,
2013-01-20 14:10:00,22.1,10.0,30.30,WSW,243,6.6,9.9,59,0.00,,,0.00,243.00,VWS V14.01,2013-01-20 20:10:00,
2013-01-20 14:12:00,22.1,10.4,30.30,WNW,287,13.2,15.4,60,0.00,,,0.00,232.00,VWS V14.01,2013-01-20 20:12:00,
2013-01-20 14:14:00,22.2,10.1,30.30,NW,316,8.8,12.1,59,0.00,,,0.00,225.00,VWS V14.01,2013-01-20 20:14:00,
2013-01-20 14:15:00,22.3,10.2,30.30,WSW,258,6.6,12.1,59,0.00,,,0.00,218.00,VWS V14.01,2013-01-20 20:15:00,
2013-01-20 14:17:00,22.6,10.4,30.30,West,260,14.3,14.3,59,0.00,,,0.00,213.00,VWS V14.01,2013-01-20 20:17:00,
2013-01-20 14:19:00,22.4,9.9,30.30,NW,310,6.6,11.0,58,0.00,,,0.00,211.00,VWS V14.01,2013-01-20 20:19:00,
2013-01-20 14:21:00,22.3,9.8,30.31,NW,305,8.8,13.2,58,0.00,,,0.00,209.00,VWS V14.01,2013-01-20 20:21:00,
2013-01-20 14:22:00,22.2,9.7,30.31,NW,308,11.0,12.1,58,0.00,,,0.00,211.00,VWS V14.01,2013-01-20 20:22:00,
2013-01-20 14:25:00,22.1,9.6,30.31,NW,305,8.8,9.9,58,0.00,,,0.00,185.00,VWS V14.01,2013-01-20 20:25:00,
2013-01-20 14:26:00,22.1,9.6,30.31,West,264,9.9,11.0,58,0.00,,,0.00,176.00,VWS V14.01,2013-01-20 20:26:00,
2013-01-20 14:29:00,22.1,9.6,30.30,West,279,12.1,12.1,58,0.00,,,0.00,167.00,VWS V14.01,2013-01-20 20:29:00,
2013-01-20 14:30:00,22.1,9.6,30.31,West,261,8.8,13.2,58,0.00,,,0.00,165.00,VWS V14.01,2013-01-20 20:30:00,
2013-01-20 14:31:00,22.1,9.6,30.30,NW,316,11.0,15.4,58,0.00,,,0.00,167.00,VWS V14.01,2013-01-20 20:31:00,
2013-01-20 14:32:00,22.2,9.7,30.30,WNW,291,6.6,11.0,58,0.00,,,0.00,162.00,VWS V14.01,2013-01-20 20:32:00,
2013-01-20 14:34:00,22.4,10.3,30.30,NW,306,6.6,9.9,59,0.00,,,0.00,155.00,VWS V14.01,2013-01-20 20:34:00,
2013-01-20 14:36:00,22.3,9.8,30.30,WNW,293,4.4,5.5,58,0.00,,,0.00,148.00,VWS V14.01,2013-01-20 20:36:00,
2013-01-20 14:37:00,22.3,9.8,30.31,WNW,299,6.6,8.8,58,0.00,,,0.00,156.00,VWS V14.01,2013-01-20 20:37:00,
2013-01-20 14:39:00,22.4,9.9,30.31,NW,325,9.9,9.9,58,0.00,,,0.00,148.00,VWS V14.01,2013-01-20 20:39:00,
2013-01-20 14:41:00,22.4,9.5,30.31,WNW,299,8.8,13.2,57,0.00,,,0.00,142.00,VWS V14.01,2013-01-20 20:41:00,
2013-01-20 14:43:00,22.2,9.3,30.31,WNW,292,6.6,7.7,57,0.00,,,0.00,132.00,VWS V14.01,2013-01-20 20:43:00,
2013-01-20 14:45:00,22.0,9.5,30.31,WNW,299,14.3,14.3,58,0.00,,,0.00,125.00,VWS V14.01,2013-01-20 20:45:00,
2013-01-20 14:46:00,22.0,9.9,30.31,WNW,301,8.8,14.3,59,0.00,,,0.00,123.00,VWS V14.01,2013-01-20 20:46:00,
2013-01-20 14:47:00,21.9,9.8,30.31,NW,305,4.4,8.8,59,0.00,,,0.00,118.00,VWS V14.01,2013-01-20 20:47:00,
2013-01-20 14:48:00,21.9,9.8,30.31,West,267,11.0,11.0,59,0.00,,,0.00,109.00,VWS V14.01,2013-01-20 20:48:00,
2013-01-20 14:50:00,22.0,9.5,30.31,NW,314,7.7,7.7,58,0.00,,,0.00,104.00,VWS V14.01,2013-01-20 20:50:00,
2013-01-20 14:52:00,22.0,9.9,30.31,NW,307,8.8,9.9,59,0.00,,,0.00,100.00,VWS V14.01,2013-01-20 20:52:00,
2013-01-20 14:54:00,22.0,9.5,30.31,WNW,297,5.5,8.8,58,0.00,,,0.00,100.00,VWS V14.01,2013-01-20 20:54:00,
2013-01-20 14:56:00,22.0,9.9,30.32,WNW,289,9.9,9.9,59,0.00,,,0.00,102.00,VWS V14.01,2013-01-20 20:56:00,
2013-01-20 14:57:00,22.1,9.6,30.32,WNW,301,14.3,15.4,58,0.00,,,0.00,118.00,VWS V14.01,2013-01-20 20:57:00,
2013-01-20 14:59:00,22.0,9.5,30.32,NW,305,9.9,14.3,58,0.00,,,0.00,123.00,VWS V14.01,2013-01-20 20:59:00,
2013-01-20 15:01:00,22.0,9.5,30.31,NW,320,8.8,14.3,58,0.00,,,0.00,120.00,VWS V14.01,2013-01-20 21:01:00,
2013-01-20 15:03:00,21.9,9.4,30.31,West,270,7.7,11.0,58,0.00,,,0.00,118.00,VWS V14.01,2013-01-20 21:03:00,
2013-01-20 15:05:00,21.8,9.3,30.31,NW,305,9.9,14.3,58,0.00,,,0.00,118.00,VWS V14.01,2013-01-20 21:05:00,
2013-01-20 15:07:00,21.9,9.8,30.31,West,260,8.8,14.3,59,0.00,,,0.00,105.00,VWS V14.01,2013-01-20 21:07:00,
2013-01-20 15:08:00,21.9,10.2,30.31,NW,305,13.2,13.2,60,0.00,,,0.00,98.00,VWS V14.01,2013-01-20 21:08:00,
2013-01-20 15:10:00,21.9,9.8,30.31,WNW,301,11.0,13.2,59,0.00,,,0.00,93.00,VWS V14.01,2013-01-20 21:10:00,
2013-01-20 15:12:00,21.7,9.6,30.31,West,274,6.6,7.7,59,0.00,,,0.00,83.00,VWS V14.01,2013-01-20 21:12:00,
2013-01-20 15:13:00,21.7,9.6,30.31,NW,315,9.9,9.9,59,0.00,,,0.00,77.00,VWS V14.01,2013-01-20 21:13:00,
2013-01-20 15:14:00,21.7,9.6,30.31,West,280,5.5,7.7,59,0.00,,,0.00,76.00,VWS V14.01,2013-01-20 21:14:00,
2013-01-20 15:15:00,21.7,9.6,30.31,WNW,282,7.7,11.0,59,0.00,,,0.00,76.00,VWS V14.01,2013-01-20 21:15:00,
2013-01-20 15:17:00,21.7,9.6,30.31,West,260,6.6,13.2,59,0.00,,,0.00,72.00,VWS V14.01,2013-01-20 21:17:00,
2013-01-20 15:19:00,21.7,9.6,30.31,WNW,282,5.5,7.7,59,0.00,,,0.00,70.00,VWS V14.01,2013-01-20 21:19:00,
2013-01-20 15:21:00,21.6,9.1,30.31,WNW,284,9.9,9.9,58,0.00,,,0.00,65.00,VWS V14.01,2013-01-20 21:21:00,
2013-01-20 15:23:00,21.5,9.0,30.31,NW,308,6.6,12.1,58,0.00,,,0.00,67.00,VWS V14.01,2013-01-20 21:23:00,
2013-01-20 15:24:00,21.4,8.9,30.31,WNW,287,9.9,14.3,58,0.00,,,0.00,63.00,VWS V14.01,2013-01-20 21:24:00,
2013-01-20 15:26:00,21.3,8.4,30.31,WNW,295,8.8,12.1,57,0.00,,,0.00,65.00,VWS V14.01,2013-01-20 21:26:00,
2013-01-20 15:28:00,21.3,8.8,30.31,WNW,284,8.8,13.2,58,0.00,,,0.00,63.00,VWS V14.01,2013-01-20 21:28:00,
2013-01-20 15:30:00,21.3,9.2,30.31,NW,307,7.7,9.9,59,0.00,,,0.00,58.00,VWS V14.01,2013-01-20 21:30:00,
2013-01-20 15:31:00,21.3,9.2,30.30,West,276,5.5,11.0,59,0.00,,,0.00,58.00,VWS V14.01,2013-01-20 21:31:00,
2013-01-20 15:33:00,21.4,9.3,30.31,NW,317,6.6,7.7,59,0.00,,,0.00,58.00,VWS V14.01,2013-01-20 21:33:00,
2013-01-20 15:35:00,21.4,9.3,30.31,WNW,285,6.6,8.8,59,0.00,,,0.00,60.00,VWS V14.01,2013-01-20 21:35:00,
2013-01-20 15:36:00,21.4,9.3,30.31,NW,306,6.6,8.8,59,0.00,,,0.00,62.00,VWS V14.01,2013-01-20 21:36:00,
2013-01-20 15:38:00,21.3,9.2,30.31,WNW,296,6.6,14.3,59,0.00,,,0.00,62.00,VWS V14.01,2013-01-20 21:38:00,
2013-01-20 15:39:00,21.3,9.6,30.31,NW,312,11.0,11.0,60,0.00,,,0.00,60.00,VWS V14.01,2013-01-20 21:39:00,
2013-01-20 15:40:00,21.3,9.6,30.31,NW,315,7.7,7.7,60,0.00,,,0.00,58.00,VWS V14.01,2013-01-20 21:40:00,
2013-01-20 15:42:00,21.3,9.6,30.31,WNW,298,6.6,12.1,60,0.00,,,0.00,63.00,VWS V14.01,2013-01-20 21:42:00,
2013-01-20 15:44:00,21.2,9.5,30.31,WNW,303,6.6,9.9,60,0.00,,,0.00,67.00,VWS V14.01,2013-01-20 21:44:00,
2013-01-20 15:46:00,21.2,9.5,30.31,NW,319,11.0,11.0,60,0.00,,,0.00,72.00,VWS V14.01,2013-01-20 21:46:00,
2013-01-20 15:47:00,21.1,9.4,30.31,WNW,299,11.0,12.1,60,0.00,,,0.00,72.00,VWS V14.01,2013-01-20 21:47:00,
2013-01-20 15:48:00,21.1,9.4,30.31,WNW,297,8.8,12.1,60,0.00,,,0.00,72.00,VWS V14.01,2013-01-20 21:48:00,
2013-01-20 15:50:00,21.1,9.8,30.31,WNW,300,8.8,8.8,61,0.00,,,0.00,67.00,VWS V14.01,2013-01-20 21:50:00,
2013-01-20 15:51:00,21.2,9.9,30.31,NW,321,13.2,13.2,61,0.00,,,0.00,65.00,VWS V14.01,2013-01-20 21:51:00,
2013-01-20 15:53:00,21.2,9.9,30.32,NW,313,8.8,13.2,61,0.00,,,0.00,60.00,VWS V14.01,2013-01-20 21:53:00,
2013-01-20 15:56:00,21.2,9.9,30.32,WNW,291,6.6,11.0,61,0.00,,,0.00,53.00,VWS V14.01,2013-01-20 21:56:00,
2013-01-20 15:58:00,21.2,9.9,30.32,NW,308,7.7,12.1,61,0.00,,,0.00,47.00,VWS V14.01,2013-01-20 21:58:00,
2013-01-20 16:01:00,21.1,9.4,30.32,WNW,298,13.2,13.2,60,0.00,,,0.00,39.00,VWS V14.01,2013-01-20 22:01:00,
2013-01-20 16:02:00,21.1,9.4,30.32,WNW,289,4.4,13.2,60,0.00,,,0.00,39.00,VWS V14.01,2013-01-20 22:02:00,
2013-01-20 16:05:00,21.0,9.7,30.32,WNW,298,9.9,13.2,61,0.00,,,0.00,37.00,VWS V14.01,2013-01-20 22:05:00,
2013-01-20 16:06:00,21.0,9.7,30.32,WNW,303,11.0,11.0,61,0.00,,,0.00,35.00,VWS V14.01,2013-01-20 22:06:00,
2013-01-20 16:07:00,21.0,9.7,30.32,NW,309,8.8,11.0,61,0.00,,,0.00,35.00,VWS V14.01,2013-01-20 22:07:00,
2013-01-20 16:10:00,20.9,9.9,30.32,West,274,9.9,9.9,62,0.00,,,0.00,32.00,VWS V14.01,2013-01-20 22:10:00,
2013-01-20 16:11:00,20.9,9.9,30.32,NW,309,13.2,13.2,62,0.00,,,0.00,32.00,VWS V14.01,2013-01-20 22:11:00,
2013-01-20 16:12:00,20.9,9.6,30.32,WNW,289,11.0,13.2,61,0.00,,,0.00,30.00,VWS V14.01,2013-01-20 22:12:00,
2013-01-20 16:13:00,20.9,9.6,30.32,WNW,289,6.6,9.9,61,0.00,,,0.00,28.00,VWS V14.01,2013-01-20 22:13:00,
2013-01-20 16:16:00,20.7,9.8,30.32,NW,310,6.6,7.7,62,0.00,,,0.00,23.00,VWS V14.01,2013-01-20 22:16:00,
2013-01-20 16:17:00,20.7,9.8,30.32,WNW,290,11.0,11.0,62,0.00,,,0.00,21.00,VWS V14.01,2013-01-20 22:17:00,
2013-01-20 16:18:00,20.6,9.7,30.32,WNW,289,12.1,12.1,62,0.00,,,0.00,19.00,VWS V14.01,2013-01-20 22:18:00,
2013-01-20 16:22:00,20.4,9.1,30.31,WNW,293,5.5,12.1,61,0.00,,,0.00,16.00,VWS V14.01,2013-01-20 22:22:00,
2013-01-20 16:23:00,20.4,9.1,30.31,West,271,7.7,12.1,61,0.00,,,0.00,14.00,VWS V14.01,2013-01-20 22:23:00,
2013-01-20 16:27:00,20.2,8.9,30.32,WNW,303,9.9,12.1,61,0.00,,,0.00,12.00,VWS V14.01,2013-01-20 22:27:00,
2013-01-20 16:28:00,20.2,8.9,30.32,WNW,288,12.1,12.1,61,0.00,,,0.00,12.00,VWS V14.01,2013-01-20 22:28:00,
2013-01-20 16:29:00,20.2,8.9,30.32,NW,304,11.0,12.1,61,0.00,,,0.00,12.00,VWS V14.01,2013-01-20 22:29:00,
2013-01-20 16:33:00,20.1,8.8,30.32,WNW,287,8.8,12.1,61,0.00,,,0.00,11.00,VWS V14.01,2013-01-20 22:33:00,
2013-01-20 16:34:00,20.1,8.8,30.32,WNW,291,9.9,12.1,61,0.00,,,0.00,11.00,VWS V14.01,2013-01-20 22:34:00,
2013-01-20 16:38:00,20.0,9.1,30.33,NW,305,7.7,11.0,62,0.00,,,0.00,9.00,VWS V14.01,2013-01-20 22:38:00,
2013-01-20 16:39:00,20.0,9.1,30.33,WNW,293,8.8,8.8,62,0.00,,,0.00,7.00,VWS V14.01,2013-01-20 22:39:00,
2013-01-20 16:40:00,20.0,9.1,30.33,WNW,297,5.5,9.9,62,0.00,,,0.00,7.00,VWS V14.01,2013-01-20 22:40:00,
2013-01-20 16:43:00,20.0,9.1,30.33,WNW,284,6.6,7.7,62,0.00,,,0.00,5.00,VWS V14.01,2013-01-20 22:43:00,
2013-01-20 16:44:00,20.0,9.1,30.33,WNW,291,5.5,5.5,62,0.00,,,0.00,5.00,VWS V14.01,2013-01-20 22:44:00,
2013-01-20 16:45:00,19.9,9.0,30.33,WNW,296,4.4,7.7,62,0.00,,,0.00,5.00,VWS V14.01,2013-01-20 22:45:00,
2013-01-20 16:48:00,19.8,8.9,30.33,NW,322,4.4,9.9,62,0.00,,,0.00,0.00,VWS V14.01,2013-01-20 22:48:00,
2013-01-20 16:49:00,19.8,8.9,30.32,NW,321,6.6,7.7,62,0.00,,,0.00,0.00,VWS V14.01,2013-01-20 22:49:00,
2013-01-20 16:50:00,19.7,8.8,30.32,NW,312,9.9,11.0,62,0.00,,,0.00,0.00,VWS V14.01,2013-01-20 22:50:00,
2013-01-20 16:51:00,19.7,8.8,30.32,WNW,300,8.8,12.1,62,0.00,,,0.00,0.00,VWS V14.01,2013-01-20 22:51:00,
2013-01-20 16:53:00,19.7,8.8,30.32,NW,305,8.8,8.8,62,0.00,,,0.00,0.00,VWS V14.01,2013-01-20 22:53:00,
2013-01-20 16:55:00,19.7,8.8,30.32,WNW,296,11.0,12.1,62,0.00,,,0.00,0.00,VWS V14.01,2013-01-20 22:55:00,
2013-01-20 16:56:00,19.7,8.8,30.32,WNW,303,8.8,9.9,62,0.00,,,0.00,0.00,VWS V14.01,2013-01-20 22:56:00,
2013-01-20 16:59:00,19.6,8.7,30.32,WNW,289,7.7,8.8,62,0.00,,,0.00,0.00,VWS V14.01,2013-01-20 22:59:00,
2013-01-20 17:01:00,19.5,8.6,30.32,WNW,283,6.6,9.9,62,0.00,,,0.00,0.00,VWS V14.01,2013-01-20 23:01:00,
2013-01-20 17:03:00,19.4,8.9,30.32,West,274,6.6,7.7,63,0.00,,,0.00,0.00,VWS V14.01,2013-01-20 23:03:00,
2013-01-20 17:04:00,19.4,8.9,30.32,WNW,291,8.8,12.1,63,0.00,,,0.00,0.00,VWS V14.01,2013-01-20 23:04:00,
2013-01-20 17:07:00,19.3,8.8,30.32,West,272,5.5,5.5,63,0.00,,,0.00,0.00,VWS V14.01,2013-01-20 23:07:00,
2013-01-20 17:08:00,19.3,8.8,30.32,West,270,6.6,6.6,63,0.00,,,0.00,0.00,VWS V14.01,2013-01-20 23:08:00,
2013-01-20 17:09:00,19.3,9.1,30.32,NW,313,6.6,6.6,64,0.00,,,0.00,0.00,VWS V14.01,2013-01-20 23:09:00,
2013-01-20 17:10:00,19.2,9.0,30.32,WNW,285,4.4,9.9,64,0.00,,,0.00,0.00,VWS V14.01,2013-01-20 23:10:00,
2013-01-20 17:12:00,19.2,9.0,30.32,West,278,5.5,7.7,64,0.00,,,0.00,0.00,VWS V14.01,2013-01-20 23:12:00,
2013-01-20 17:13:00,19.2,9.4,30.32,WNW,297,5.5,5.5,65,0.00,,,0.00,0.00,VWS V14.01,2013-01-20 23:13:00,
2013-01-20 17:15:00,19.1,9.3,30.32,WNW,283,5.5,8.8,65,0.00,,,0.00,0.00,VWS V14.01,2013-01-20 23:15:00,
2013-01-20 17:16:00,19.1,9.3,30.32,WNW,289,4.4,7.7,65,0.00,,,0.00,0.00,VWS V14.01,2013-01-20 23:16:00,
2013-01-20 17:18:00,19.1,9.3,30.32,West,268,6.6,11.0,65,0.00,,,0.00,0.00,VWS V14.01,2013-01-20 23:18:00,
2013-01-20 17:19:00,19.1,9.3,30.32,NW,319,6.6,8.8,65,0.00,,,0.00,0.00,VWS V14.01,2013-01-20 23:19:00,
2013-01-20 17:20:00,19.0,9.2,30.32,WNW,303,6.6,7.7,65,0.00,,,0.00,0.00,VWS V14.01,2013-01-20 23:20:00,
2013-01-20 17:22:00,19.0,9.2,30.32,West,274,7.7,8.8,65,0.00,,,0.00,0.00,VWS V14.01,2013-01-20 23:22:00,
2013-01-20 17:23:00,19.0,9.2,30.32,WNW,293,3.3,7.7,65,0.00,,,0.00,0.00,VWS V14.01,2013-01-20 23:23:00,
2013-01-20 17:24:00,19.0,9.2,30.32,West,277,4.4,4.4,65,0.00,,,0.00,0.00,VWS V14.01,2013-01-20 23:24:00,
2013-01-20 17:26:00,18.9,9.4,30.32,NW,305,7.7,11.0,66,0.00,,,0.00,0.00,VWS V14.01,2013-01-20 23:26:00,
2013-01-20 17:28:00,18.9,9.4,30.32,WNW,286,7.7,12.1,66,0.00,,,0.00,0.00,VWS V14.01,2013-01-20 23:28:00,
2013-01-20 17:29:00,18.9,9.4,30.32,WNW,301,8.8,8.8,66,0.00,,,0.00,0.00,VWS V14.01,2013-01-20 23:29:00,
2013-01-20 17:31:00,18.9,9.4,30.32,WNW,295,8.8,11.0,66,0.00,,,0.00,0.00,VWS V14.01,2013-01-20 23:31:00,
2013-01-20 17:33:00,18.9,9.1,30.32,WNW,298,5.5,7.7,65,0.00,,,0.00,0.00,VWS V14.01,2013-01-20 23:33:00,
2013-01-20 17:34:00,18.9,9.1,30.32,WNW,292,4.4,8.8,65,0.00,,,0.00,0.00,VWS V14.01,2013-01-20 23:34:00,
2013-01-20 17:36:00,18.8,9.0,30.32,West,281,5.5,9.9,65,0.00,,,0.00,0.00,VWS V14.01,2013-01-20 23:36:00,
2013-01-20 17:39:00,18.8,9.3,30.33,NW,305,2.2,5.5,66,0.00,,,0.00,0.00,VWS V14.01,2013-01-20 23:39:00,
2013-01-20 17:40:00,18.8,9.0,30.33,WNW,285,6.6,6.6,65,0.00,,,0.00,0.00,VWS V14.01,2013-01-20 23:40:00,
2013-01-20 17:42:00,18.7,8.9,30.33,WNW,286,7.7,7.7,65,0.00,,,0.00,0.00,VWS V14.01,2013-01-20 23:42:00,
2013-01-20 17:44:00,18.7,8.9,30.33,WNW,289,6.6,6.6,65,0.00,,,0.00,0.00,VWS V14.01,2013-01-20 23:44:00,
2013-01-20 17:45:00,18.7,8.9,30.33,West,277,4.4,8.8,65,0.00,,,0.00,0.00,VWS V14.01,2013-01-20 23:45:00,
2013-01-20 17:47:00,18.7,8.6,30.33,West,278,6.6,11.0,64,0.00,,,0.00,0.00,VWS V14.01,2013-01-20 23:47:00,
2013-01-20 17:49:00,18.7,8.6,30.33,NW,304,6.6,9.9,64,0.00,,,0.00,0.00,VWS V14.01,2013-01-20 23:49:00,
2013-01-20 17:50:00,18.7,8.9,30.33,WNW,294,5.5,6.6,65,0.00,,,0.00,0.00,VWS V14.01,2013-01-20 23:50:00,
2013-01-20 17:51:00,18.7,8.6,30.33,WNW,295,9.9,9.9,64,0.00,,,0.00,0.00,VWS V14.01,2013-01-20 23:51:00,
2013-01-20 17:52:00,18.7,8.9,30.33,NW,312,8.8,9.9,65,0.00,,,0.00,0.00,VWS V14.01,2013-01-20 23:52:00,
2013-01-20 17:55:00,18.7,8.6,30.33,West,272,8.8,11.0,64,0.00,,,0.00,0.00,VWS V14.01,2013-01-20 23:55:00,
2013-01-20 17:56:00,18.7,8.6,30.33,West,272,5.5,8.8,64,0.00,,,0.00,0.00,VWS V14.01,2013-01-20 23:56:00,
2013-01-20 17:57:00,18.6,8.8,30.33,WNW,295,5.5,9.9,65,0.00,,,0.00,0.00,VWS V14.01,2013-01-20 23:57:00,
2013-01-20 18:00:00,18.6,8.5,30.32,West,280,4.4,6.6,64,0.00,,,0.00,0.00,VWS V14.01,2013-01-21 00:00:00,
2013-01-20 18:01:00,18.6,8.5,30.33,West,279,7.7,7.7,64,0.00,,,0.00,0.00,VWS V14.01,2013-01-21 00:01:00,
2013-01-20 18:02:00,18.6,8.5,30.33,WNW,291,4.4,7.7,64,0.00,,,0.00,0.00,VWS V14.01,2013-01-21 00:02:00,
2013-01-20 18:06:00,18.6,8.8,30.33,NW,306,8.8,8.8,65,0.00,,,0.00,0.00,VWS V14.01,2013-01-21 00:06:00,
2013-01-20 18:07:00,18.6,8.8,30.33,NW,310,5.5,8.8,65,0.00,,,0.00,0.00,VWS V14.01,2013-01-21 00:07:00,
2013-01-20 18:11:00,18.6,8.8,30.33,WNW,290,4.4,5.5,65,0.00,,,0.00,0.00,VWS V14.01,2013-01-21 00:11:00,
2013-01-20 18:12:00,18.6,8.8,30.33,WNW,287,6.6,9.9,65,0.00,,,0.00,0.00,VWS V14.01,2013-01-21 00:12:00,
2013-01-20 18:17:00,18.7,8.9,30.33,WNW,300,4.4,6.6,65,0.00,,,0.00,0.00,VWS V14.01,2013-01-21 00:17:00,
2013-01-20 18:18:00,18.7,8.9,30.33,WNW,292,5.5,6.6,65,0.00,,,0.00,0.00,VWS V14.01,2013-01-21 00:18:00,
2013-01-20 18:22:00,18.7,9.2,30.33,WNW,303,5.5,6.6,66,0.00,,,0.00,0.00,VWS V14.01,2013-01-21 00:22:00,
2013-01-20 18:23:00,18.7,9.2,30.33,WNW,291,6.6,6.6,66,0.00,,,0.00,0.00,VWS V14.01,2013-01-21 00:23:00,
2013-01-20 18:24:00,18.7,9.2,30.33,WNW,299,5.5,7.7,66,0.00,,,0.00,0.00,VWS V14.01,2013-01-21 00:24:00,
2013-01-20 18:28:00,18.7,9.2,30.33,WNW,301,7.7,7.7,66,0.00,,,0.00,0.00,VWS V14.01,2013-01-21 00:28:00,
2013-01-20 18:29:00,18.7,9.2,30.33,WNW,283,3.3,7.7,66,0.00,,,0.00,0.00,VWS V14.01,2013-01-21 00:29:00,
2013-01-20 18:33:00,18.7,9.2,30.33,WNW,296,5.5,6.6,66,0.00,,,0.00,0.00,VWS V14.01,2013-01-21 00:33:00,
2013-01-20 18:34:00,18.7,9.2,30.33,NW,304,4.4,4.4,66,0.00,,,0.00,0.00,VWS V14.01,2013-01-21 00:34:00,
2013-01-20 18:38:00,18.7,9.2,30.33,WNW,297,3.3,5.5,66,0.00,,,0.00,0.00,VWS V14.01,2013-01-21 00:38:00,
2013-01-20 18:39:00,18.8,9.3,30.33,WNW,288,5.5,5.5,66,0.00,,,0.00,0.00,VWS V14.01,2013-01-21 00:39:00,
2013-01-20 18:40:00,18.7,9.2,30.33,WNW,283,5.5,6.6,66,0.00,,,0.00,0.00,VWS V14.01,2013-01-21 00:40:00,
2013-01-20 18:44:00,18.8,9.3,30.33,West,276,5.5,6.6,66,0.00,,,0.00,0.00,VWS V14.01,2013-01-21 00:44:00,
2013-01-20 18:45:00,18.7,9.2,30.33,West,268,4.4,5.5,66,0.00,,,0.00,0.00,VWS V14.01,2013-01-21 00:45:00,
2013-01-20 18:46:00,18.8,9.3,30.33,WNW,289,3.3,4.4,66,0.00,,,0.00,0.00,VWS V14.01,2013-01-21 00:46:00,
2013-01-20 18:49:00,18.8,9.7,30.33,West,268,6.6,6.6,67,0.00,,,0.00,0.00,VWS V14.01,2013-01-21 00:49:00,
2013-01-20 18:50:00,18.8,9.7,30.33,WNW,292,3.3,6.6,67,0.00,,,0.00,0.00,VWS V14.01,2013-01-21 00:50:00,
2013-01-20 18:53:00,18.8,9.7,30.33,West,275,7.7,7.7,67,0.00,,,0.00,0.00,VWS V14.01,2013-01-21 00:53:00,
2013-01-20 18:54:00,18.8,9.7,30.33,WNW,286,3.3,5.5,67,0.00,,,0.00,0.00,VWS V14.01,2013-01-21 00:54:00,
2013-01-20 18:55:00,18.8,9.7,30.32,NW,316,3.3,6.6,67,0.00,,,0.00,0.00,VWS V14.01,2013-01-21 00:55:00,
2013-01-20 18:56:00,18.8,9.7,30.32,NW,306,3.3,6.6,67,0.00,,,0.00,0.00,VWS V14.01,2013-01-21 00:56:00,
2013-01-20 18:58:00,18.8,9.7,30.32,NNW,347,4.4,7.7,67,0.00,,,0.00,0.00,VWS V14.01,2013-01-21 00:58:00,
2013-01-20 19:00:00,18.8,9.7,30.32,West,273,6.6,6.6,67,0.00,,,0.00,0.00,VWS V14.01,2013-01-21 01:00:00,
2013-01-20 19:01:00,18.8,9.7,30.32,WNW,284,2.2,4.4,67,0.00,,,0.00,0.00,VWS V14.01,2013-01-21 01:01:00,
2013-01-20 19:03:00,18.8,9.7,30.32,West,270,6.6,7.7,67,0.00,,,0.00,0.00,VWS V14.01,2013-01-21 01:03:00,
2013-01-20 19:05:00,18.8,9.7,30.33,West,274,4.4,4.4,67,0.00,,,0.00,0.00,VWS V14.01,2013-01-21 01:05:00,
2013-01-20 19:06:00,18.8,9.7,30.32,WNW,293,5.5,5.5,67,0.00,,,0.00,0.00,VWS V14.01,2013-01-21 01:06:00,
2013-01-20 19:07:00,18.8,9.7,30.32,WNW,284,6.6,7.7,67,0.00,,,0.00,0.00,VWS V14.01,2013-01-21 01:07:00,
2013-01-20 19:08:00,18.8,9.7,30.33,WNW,283,3.3,5.5,67,0.00,,,0.00,0.00,VWS V14.01,2013-01-21 01:08:00,
2013-01-20 19:10:00,18.9,9.8,30.32,WNW,284,8.8,8.8,67,0.00,,,0.00,0.00,VWS V14.01,2013-01-21 01:10:00,
2013-01-20 19:12:00,18.9,9.8,30.32,West,260,6.6,7.7,67,0.00,,,0.00,0.00,VWS V14.01,2013-01-21 01:12:00,
2013-01-20 19:13:00,18.8,9.7,30.32,WNW,293,7.7,9.9,67,0.00,,,0.00,0.00,VWS V14.01,2013-01-21 01:13:00,
2013-01-20 19:16:00,18.8,9.3,30.33,WNW,296,9.9,9.9,66,0.00,,,0.00,0.00,VWS V14.01,2013-01-21 01:16:00,
2013-01-20 19:17:00,18.8,9.3,30.33,West,279,9.9,9.9,66,0.00,,,0.00,0.00,VWS V14.01,2013-01-21 01:17:00,
2013-01-20 19:18:00,18.8,9.3,30.33,WNW,286,11.0,11.0,66,0.00,,,0.00,0.00,VWS V14.01,2013-01-21 01:18:00,
2013-01-20 19:21:00,18.8,9.3,30.32,WNW,303,6.6,7.7,66,0.00,,,0.00,0.00,VWS V14.01,2013-01-21 01:21:00,
2013-01-20 19:23:00,18.8,9.0,30.32,NW,307,7.7,9.9,65,0.00,,,0.00,0.00,VWS V14.01,2013-01-21 01:23:00,
2013-01-20 19:24:00,18.8,9.3,30.32,NW,306,11.0,12.1,66,0.00,,,0.00,0.00,VWS V14.01,2013-01-21 01:24:00,
2013-01-20 19:26:00,18.8,9.0,30.32,WNW,294,4.4,11.0,65,0.00,,,0.00,0.00,VWS V14.01,2013-01-21 01:26:00,
2013-01-20 19:28:00,18.7,8.9,30.32,WNW,288,5.5,9.9,65,0.00,,,0.00,0.00,VWS V14.01,2013-01-21 01:28:00,
2013-01-20 19:29:00,18.7,8.9,30.32,WNW,297,7.7,11.0,65,0.00,,,0.00,0.00,VWS V14.01,2013-01-21 01:29:00,
2013-01-20 19:30:00,18.7,8.9,30.32,West,274,3.3,7.7,65,0.00,,,0.00,0.00,VWS V14.01,2013-01-21 01:30:00,
2013-01-20 19:32:00,18.8,9.0,30.32,NW,314,5.5,6.6,65,0.00,,,0.00,0.00,VWS V14.01,2013-01-21 01:32:00,
2013-01-20 19:33:00,18.8,9.3,30.32,West,277,5.5,8.8,66,0.00,,,0.00,0.00,VWS V14.01,2013-01-21 01:33:00,
2013-01-20 19:35:00,18.8,9.0,30.32,NW,312,5.5,9.9,65,0.00,,,0.00,0.00,VWS V14.01,2013-01-21 01:35:00,
2013-01-20 19:37:00,18.8,9.0,30.32,NW,304,5.5,5.5,65,0.00,,,0.00,0.00,VWS V14.01,2013-01-21 01:37:00,
2013-01-20 19:39:00,18.8,9.3,30.32,West,273,11.0,11.0,66,0.00,,,0.00,0.00,VWS V14.01,2013-01-21 01:39:00,
2013-01-20 19:40:00,18.8,9.0,30.31,WNW,300,4.4,6.6,65,0.00,,,0.00,0.00,VWS V14.01,2013-01-21 01:40:00,
2013-01-20 19:42:00,18.8,9.0,30.32,West,280,6.6,12.1,65,0.00,,,0.00,0.00,VWS V14.01,2013-01-21 01:42:00,
2013-01-20 19:43:00,18.8,9.0,30.32,WNW,301,11.0,12.1,65,0.00,,,0.00,0.00,VWS V14.01,2013-01-21 01:43:00,
2013-01-20 19:45:00,18.8,9.0,30.31,WNW,283,5.5,11.0,65,0.00,,,0.00,0.00,VWS V14.01,2013-01-21 01:45:00,
2013-01-20 19:46:00,18.7,8.9,30.32,WNW,289,3.3,6.6,65,0.00,,,0.00,0.00,VWS V14.01,2013-01-21 01:46:00,
2013-01-20 19:47:00,18.8,9.0,30.31,WNW,291,6.6,7.7,65,0.00,,,0.00,0.00,VWS V14.01,2013-01-21 01:47:00,
2013-01-20 19:49:00,18.7,8.9,30.32,NW,308,6.6,9.9,65,0.00,,,0.00,0.00,VWS V14.01,2013-01-21 01:49:00,
2013-01-20 19:51:00,18.7,8.9,30.31,WNW,287,7.7,7.7,65,0.00,,,0.00,0.00,VWS V14.01,2013-01-21 01:51:00,
2013-01-20 19:52:00,18.7,8.9,30.31,West,280,4.4,9.9,65,0.00,,,0.00,0.00,VWS V14.01,2013-01-21 01:52:00,
2013-01-20 19:54:00,18.6,8.8,30.31,WNW,284,8.8,9.9,65,0.00,,,0.00,0.00,VWS V14.01,2013-01-21 01:54:00,
2013-01-20 19:56:00,18.6,8.8,30.31,WNW,289,4.4,6.6,65,0.00,,,0.00,0.00,VWS V14.01,2013-01-21 01:56:00,
2013-01-20 19:58:00,18.6,8.8,30.31,West,279,4.4,5.5,65,0.00,,,0.00,0.00,VWS V14.01,2013-01-21 01:58:00,
2013-01-20 19:59:00,18.6,8.8,30.31,West,270,11.0,11.0,65,0.00,,,0.00,0.00,VWS V14.01,2013-01-21 01:59:00,
2013-01-20 20:01:00,18.6,9.1,30.31,NW,305,6.6,9.9,66,0.00,,,0.00,0.00,VWS V14.01,2013-01-21 02:01:00,
2013-01-20 20:03:00,18.6,8.8,30.31,West,280,6.6,7.7,65,0.00,,,0.00,0.00,VWS V14.01,2013-01-21 02:03:00,
2013-01-20 20:05:00,18.6,8.8,30.31,West,280,6.6,6.6,65,0.00,,,0.00,0.00,VWS V14.01,2013-01-21 02:05:00,
2013-01-20 20:06:00,18.6,8.8,30.31,WNW,302,9.9,13.2,65,0.00,,,0.00,0.00,VWS V14.01,2013-01-21 02:06:00,
2013-01-20 20:08:00,18.6,9.1,30.31,West,276,5.5,8.8,66,0.00,,,0.00,0.00,VWS V14.01,2013-01-21 02:08:00,
2013-01-20 20:10:00,18.6,9.1,30.31,WNW,301,7.7,8.8,66,0.00,,,0.00,0.00,VWS V14.01,2013-01-21 02:10:00,
2013-01-20 20:11:00,18.6,9.1,30.31,West,276,3.3,4.4,66,0.00,,,0.00,0.00,VWS V14.01,2013-01-21 02:11:00,
2013-01-20 20:14:00,18.6,9.1,30.31,West,270,8.8,8.8,66,0.00,,,0.00,0.00,VWS V14.01,2013-01-21 02:14:00,
2013-01-20 20:15:00,18.6,9.1,30.31,WNW,285,7.7,8.8,66,0.00,,,0.00,0.00,VWS V14.01,2013-01-21 02:15:00,
2013-01-20 20:16:00,18.6,9.1,30.31,NW,318,4.4,6.6,66,0.00,,,0.00,0.00,VWS V14.01,2013-01-21 02:16:00,
2013-01-20 20:17:00,18.6,8.8,30.31,West,262,7.7,11.0,65,0.00,,,0.00,0.00,VWS V14.01,2013-01-21 02:17:00,
2013-01-20 20:19:00,18.6,8.8,30.31,WNW,289,7.7,7.7,65,0.00,,,0.00,0.00,VWS V14.01,2013-01-21 02:19:00,
2013-01-20 20:21:00,18.6,8.8,30.31,West,269,6.6,9.9,65,0.00,,,0.00,0.00,VWS V14.01,2013-01-21 02:21:00,
2013-01-20 20:22:00,18.6,8.8,30.31,WNW,290,5.5,6.6,65,0.00,,,0.00,0.00,VWS V14.01,2013-01-21 02:22:00,
2013-01-20 20:23:00,18.6,8.8,30.31,WNW,299,6.6,6.6,65,0.00,,,0.00,0.00,VWS V14.01,2013-01-21 02:23:00,
2013-01-20 20:24:00,18.5,8.7,30.31,WNW,287,6.6,8.8,65,0.00,,,0.00,0.00,VWS V14.01,2013-01-21 02:24:00,
2013-01-20 20:27:00,18.5,8.7,30.31,West,272,6.6,8.8,65,0.00,,,0.00,0.00,VWS V14.01,2013-01-21 02:27:00,
2013-01-20 20:28:00,18.6,8.8,30.31,WNW,283,9.9,9.9,65,0.00,,,0.00,0.00,VWS V14.01,2013-01-21 02:28:00,
2013-01-20 20:29:00,18.5,8.7,30.31,NW,310,7.7,12.1,65,0.00,,,0.00,0.00,VWS V14.01,2013-01-21 02:29:00,
2013-01-20 20:30:00,18.5,8.7,30.31,WNW,291,11.0,13.2,65,0.00,,,0.00,0.00,VWS V14.01,2013-01-21 02:30:00,
2013-01-20 20:33:00,18.5,8.7,30.31,WNW,288,4.4,9.9,65,0.00,,,0.00,0.00,VWS V14.01,2013-01-21 02:33:00,
2013-01-20 20:34:00,18.5,8.7,30.31,WNW,302,7.7,11.0,65,0.00,,,0.00,0.00,VWS V14.01,2013-01-21 02:34:00,
2013-01-20 20:35:00,18.5,8.7,30.31,West,272,7.7,8.8,65,0.00,,,0.00,0.00,VWS V14.01,2013-01-21 02:35:00,
2013-01-20 20:39:00,18.5,8.7,30.31,WNW,290,6.6,7.7,65,0.00,,,0.00,0.00,VWS V14.01,2013-01-21 02:39:00,
2013-01-20 20:40:00,18.5,8.7,30.31,WNW,295,5.5,7.7,65,0.00,,,0.00,0.00,VWS V14.01,2013-01-21 02:40:00,
2013-01-20 20:45:00,18.5,8.7,30.31,West,276,6.6,11.0,65,0.00,,,0.00,0.00,VWS V14.01,2013-01-21 02:45:00,
2013-01-20 20:46:00,18.5,8.7,30.31,West,271,11.0,11.0,65,0.00,,,0.00,0.00,VWS V14.01,2013-01-21 02:46:00,
2013-01-20 20:51:00,18.4,8.6,30.31,West,274,9.9,12.1,65,0.00,,,0.00,0.00,VWS V14.01,2013-01-21 02:51:00,
2013-01-20 20:53:00,18.4,8.6,30.31,West,276,7.7,9.9,65,0.00,,,0.00,0.00,VWS V14.01,2013-01-21 02:53:00,
2013-01-20 20:55:00,18.4,8.6,30.31,NW,304,2.2,7.7,65,0.00,,,0.00,0.00,VWS V14.01,2013-01-21 02:55:00,
2013-01-20 20:56:00,18.3,8.5,30.31,WNW,288,8.8,12.1,65,0.00,,,0.00,0.00,VWS V14.01,2013-01-21 02:56:00,
2013-01-20 20:57:00,18.3,8.5,30.31,WNW,284,6.6,9.9,65,0.00,,,0.00,0.00,VWS V14.01,2013-01-21 02:57:00,
2013-01-20 20:58:00,18.3,8.5,30.31,WNW,292,6.6,6.6,65,0.00,,,0.00,0.00,VWS V14.01,2013-01-21 02:58:00,
2013-01-20 21:00:00,18.2,8.4,30.30,WNW,282,7.7,7.7,65,0.00,,,0.00,0.00,VWS V14.01,2013-01-21 03:00:00,
2013-01-20 21:01:00,18.2,8.4,30.30,West,276,6.6,8.8,65,0.00,,,0.00,0.00,VWS V14.01,2013-01-21 03:01:00,
2013-01-20 21:02:00,18.2,8.4,30.30,West,274,5.5,6.6,65,0.00,,,0.00,0.00,VWS V14.01,2013-01-21 03:02:00,
2013-01-20 21:03:00,18.2,8.4,30.31,WNW,301,6.6,6.6,65,0.00,,,0.00,0.00,VWS V14.01,2013-01-21 03:03:00,
2013-01-20 21:05:00,18.1,8.7,30.30,West,268,7.7,9.9,66,0.00,,,0.00,0.00,VWS V14.01,2013-01-21 03:05:00,
2013-01-20 21:06:00,18.1,8.7,30.30,WNW,287,7.7,9.9,66,0.00,,,0.00,0.00,VWS V14.01,2013-01-21 03:06:00,
2013-01-20 21:08:00,18.1,8.7,30.30,WNW,299,6.6,6.6,66,0.00,,,0.00,0.00,VWS V14.01,2013-01-21 03:08:00,
2013-01-20 21:11:00,18.1,8.7,30.30,West,272,6.6,7.7,66,0.00,,,0.00,0.00,VWS V14.01,2013-01-21 03:11:00,
2013-01-20 21:12:00,18.1,8.3,30.30,West,267,6.6,8.8,65,0.00,,,0.00,0.00,VWS V14.01,2013-01-21 03:12:00,
2013-01-20 21:14:00,18.1,8.7,30.30,NW,307,4.4,7.7,66,0.00,,,0.00,0.00,VWS V14.01,2013-01-21 03:14:00,
2013-01-20 21:17:00,18.1,8.7,30.30,West,280,5.5,8.8,66,0.00,,,0.00,0.00,VWS V14.01,2013-01-21 03:17:00,
2013-01-20 21:18:00,18.1,8.7,30.30,WNW,285,4.4,5.5,66,0.00,,,0.00,0.00,VWS V14.01,2013-01-21 03:18:00,
2013-01-20 21:19:00,18.1,8.7,30.30,West,271,5.5,13.2,66,0.00,,,0.00,0.00,VWS V14.01,2013-01-21 03:19:00,
2013-01-20 21:20:00,18.1,8.7,30.30,West,281,8.8,12.1,66,0.00,,,0.00,0.00,VWS V14.01,2013-01-21 03:20:00,
2013-01-20 21:23:00,18.1,8.3,30.30,WSW,256,6.6,6.6,65,0.00,,,0.00,0.00,VWS V14.01,2013-01-21 03:23:00,
2013-01-20 21:24:00,18.1,8.7,30.30,WNW,288,5.5,5.5,66,0.00,,,0.00,0.00,VWS V14.01,2013-01-21 03:24:00,
2013-01-20 21:25:00,18.1,8.7,30.30,NW,310,6.6,9.9,66,0.00,,,0.00,0.00,VWS V14.01,2013-01-21 03:25:00,
2013-01-20 21:29:00,18.1,8.3,30.30,West,270,8.8,8.8,65,0.00,,,0.00,0.00,VWS V14.01,2013-01-21 03:29:00,
2013-01-20 21:30:00,18.1,8.7,30.30,West,268,8.8,11.0,66,0.00,,,0.00,0.00,VWS V14.01,2013-01-21 03:30:00,
2013-01-20 21:31:00,18.1,8.7,30.30,West,264,7.7,11.0,66,0.00,,,0.00,0.00,VWS V14.01,2013-01-21 03:31:00,
2013-01-20 21:34:00,18.1,8.7,30.30,West,277,6.6,8.8,66,0.00,,,0.00,0.00,VWS V14.01,2013-01-21 03:34:00,
2013-01-20 21:35:00,18.1,8.7,30.30,West,265,6.6,9.9,66,0.00,,,0.00,0.00,VWS V14.01,2013-01-21 03:35:00,
2013-01-20 21:36:00,18.1,8.7,30.30,West,272,5.5,9.9,66,0.00,,,0.00,0.00,VWS V14.01,2013-01-21 03:36:00,
2013-01-20 21:40:00,18.1,9.0,30.30,West,280,5.5,8.8,67,0.00,,,0.00,0.00,VWS V14.01,2013-01-21 03:40:00,
2013-01-20 21:41:00,18.1,9.0,30.30,West,271,4.4,6.6,67,0.00,,,0.00,0.00,VWS V14.01,2013-01-21 03:41:00,
2013-01-20 21:45:00,18.1,9.0,30.30,West,268,5.5,7.7,67,0.00,,,0.00,0.00,VWS V14.01,2013-01-21 03:45:00,
2013-01-20 21:46:00,18.1,9.0,30.30,WSW,258,9.9,9.9,67,0.00,,,0.00,0.00,VWS V14.01,2013-01-21 03:46:00,
2013-01-20 21:50:00,18.1,9.0,30.30,West,276,5.5,6.6,67,0.00,,,0.00,0.00,VWS V14.01,2013-01-21 03:50:00,
2013-01-20 21:51:00,18.1,9.0,30.30,WNW,284,5.5,6.6,67,0.00,,,0.00,0.00,VWS V14.01,2013-01-21 03:51:00,
2013-01-20 21:53:00,18.1,9.0,30.29,West,272,8.8,11.0,67,0.00,,,0.00,0.00,VWS V14.01,2013-01-21 03:53:00,
2013-01-20 21:54:00,18.1,9.0,30.29,WNW,290,7.7,9.9,67,0.00,,,0.00,0.00,VWS V14.01,2013-01-21 03:54:00,
2013-01-20 21:57:00,18.0,8.9,30.29,West,270,4.4,8.8,67,0.00,,,0.00,0.00,VWS V14.01,2013-01-21 03:57:00,
2013-01-20 21:59:00,18.0,8.9,30.29,West,267,7.7,8.8,67,0.00,,,0.00,0.00,VWS V14.01,2013-01-21 03:59:00,
2013-01-20 22:00:00,18.1,9.0,30.29,West,259,9.9,11.0,67,0.00,,,0.00,0.00,VWS V14.01,2013-01-21 04:00:00,
2013-01-20 22:02:00,18.0,8.9,30.29,WNW,299,7.7,11.0,67,0.00,,,0.00,0.00,VWS V14.01,2013-01-21 04:02:00,
2013-01-20 22:04:00,18.0,8.9,30.29,WNW,282,5.5,6.6,67,0.00,,,0.00,0.00,VWS V14.01,2013-01-21 04:04:00,
2013-01-20 22:06:00,18.0,8.9,30.29,WNW,289,8.8,8.8,67,0.00,,,0.00,0.00,VWS V14.01,2013-01-21 04:06:00,
2013-01-20 22:08:00,18.0,8.9,30.29,WSW,258,4.4,5.5,67,0.00,,,0.00,0.00,VWS V14.01,2013-01-21 04:08:00,
2013-01-20 22:09:00,18.0,8.9,30.29,West,268,7.7,7.7,67,0.00,,,0.00,0.00,VWS V14.01,2013-01-21 04:09:00,
2013-01-20 22:10:00,18.0,8.9,30.29,West,274,9.9,9.9,67,0.00,,,0.00,0.00,VWS V14.01,2013-01-21 04:10:00,
2013-01-20 22:11:00,18.0,8.9,30.29,West,276,6.6,8.8,67,0.00,,,0.00,0.00,VWS V14.01,2013-01-21 04:11:00,
2013-01-20 22:14:00,18.0,8.9,30.29,West,274,7.7,9.9,67,0.00,,,0.00,0.00,VWS V14.01,2013-01-21 04:14:00,
2013-01-20 22:15:00,18.0,8.9,30.29,West,276,7.7,8.8,67,0.00,,,0.00,0.00,VWS V14.01,2013-01-21 04:15:00,
2013-01-20 22:17:00,18.0,8.9,30.29,West,265,5.5,6.6,67,0.00,,,0.00,0.00,VWS V14.01,2013-01-21 04:17:00,
2013-01-20 22:19:00,18.0,8.9,30.29,WNW,282,9.9,11.0,67,0.00,,,0.00,0.00,VWS V14.01,2013-01-21 04:19:00,
2013-01-20 22:20:00,17.9,8.8,30.29,West,272,4.4,14.3,67,0.00,,,0.00,0.00,VWS V14.01,2013-01-21 04:20:00,
2013-01-20 22:23:00,17.9,8.5,30.29,West,271,3.3,6.6,66,0.00,,,0.00,0.00,VWS V14.01,2013-01-21 04:23:00,
2013-01-20 22:25:00,17.9,8.8,30.29,WNW,294,4.4,9.9,67,0.00,,,0.00,0.00,VWS V14.01,2013-01-21 04:25:00,
2013-01-20 22:29:00,17.7,8.6,30.29,WSW,258,6.6,7.7,67,0.00,,,0.00,0.00,VWS V14.01,2013-01-21 04:29:00,
2013-01-20 22:30:00,17.7,8.6,30.29,West,276,5.5,5.5,67,0.00,,,0.00,0.00,VWS V14.01,2013-01-21 04:30:00,
2013-01-20 22:31:00,17.7,8.6,30.29,West,278,3.3,6.6,67,0.00,,,0.00,0.00,VWS V14.01,2013-01-21 04:31:00,
2013-01-20 22:35:00,17.7,8.6,30.29,West,273,4.4,6.6,67,0.00,,,0.00,0.00,VWS V14.01,2013-01-21 04:35:00,
2013-01-20 22:36:00,17.6,8.5,30.29,WNW,284,2.2,8.8,67,0.00,,,0.00,0.00,VWS V14.01,2013-01-21 04:36:00,
2013-01-20 22:38:00,17.6,8.5,30.29,WNW,292,3.3,6.6,67,0.00,,,0.00,0.00,VWS V14.01,2013-01-21 04:38:00,
2013-01-20 22:40:00,17.5,8.4,30.29,WNW,283,4.4,7.7,67,0.00,,,0.00,0.00,VWS V14.01,2013-01-21 04:40:00,
2013-01-20 22:41:00,17.5,8.8,30.29,WNW,287,9.9,11.0,68,0.00,,,0.00,0.00,VWS V14.01,2013-01-21 04:41:00,
2013-01-20 22:43:00,17.4,8.7,30.29,West,280,4.4,7.7,68,0.00,,,0.00,0.00,VWS V14.01,2013-01-21 04:43:00,
2013-01-20 22:45:00,17.4,8.3,30.29,NW,318,5.5,6.6,67,0.00,,,0.00,0.00,VWS V14.01,2013-01-21 04:45:00,
2013-01-20 22:47:00,17.4,8.3,30.28,WNW,282,4.4,6.6,67,0.00,,,0.00,0.00,VWS V14.01,2013-01-21 04:47:00,
2013-01-20 22:48:00,17.4,8.3,30.29,WNW,294,2.2,5.5,67,0.00,,,0.00,0.00,VWS V14.01,2013-01-21 04:48:00,
2013-01-20 22:50:00,17.3,8.2,30.29,NW,309,4.4,5.5,67,0.00,,,0.00,0.00,VWS V14.01,2013-01-21 04:50:00,
2013-01-20 22:52:00,17.3,8.2,30.29,West,261,6.6,7.7,67,0.00,,,0.00,0.00,VWS V14.01,2013-01-21 04:52:00,
2013-01-20 22:53:00,17.3,8.2,30.29,NW,310,4.4,6.6,67,0.00,,,0.00,0.00,VWS V14.01,2013-01-21 04:53:00,
2013-01-20 22:55:00,17.3,8.6,30.29,West,280,5.5,5.5,68,0.00,,,0.00,0.00,VWS V14.01,2013-01-21 04:55:00,
2013-01-20 22:58:00,17.2,8.5,30.28,WNW,295,6.6,11.0,68,0.00,,,0.00,0.00,VWS V14.01,2013-01-21 04:58:00,
2013-01-20 22:59:00,17.2,8.5,30.28,NW,312,8.8,9.9,68,0.00,,,0.00,0.00,VWS V14.01,2013-01-21 04:59:00,
2013-01-20 23:00:00,17.2,8.5,30.28,NW,305,4.4,8.8,68,0.00,,,0.00,0.00,VWS V14.01,2013-01-21 05:00:00,
2013-01-20 23:03:00,17.2,8.5,30.28,WNW,292,5.5,7.7,68,0.00,,,0.00,0.00,VWS V14.01,2013-01-21 05:03:00,
2013-01-20 23:05:00,17.2,8.5,30.28,WNW,303,8.8,8.8,68,0.00,,,0.00,0.00,VWS V14.01,2013-01-21 05:05:00,
2013-01-20 23:06:00,17.1,8.4,30.28,NW,304,4.4,8.8,68,0.00,,,0.00,0.00,VWS V14.01,2013-01-21 05:06:00,
2013-01-20 23:09:00,17.1,8.4,30.28,WNW,297,7.7,7.7,68,0.00,,,0.00,0.00,VWS V14.01,2013-01-21 05:09:00,
2013-01-20 23:10:00,17.1,8.4,30.28,WNW,295,3.3,5.5,68,0.00,,,0.00,0.00,VWS V14.01,2013-01-21 05:10:00,
2013-01-20 23:12:00,17.0,8.3,30.28,West,262,6.6,6.6,68,0.00,,,0.00,0.00,VWS V14.01,2013-01-21 05:12:00,
2013-01-20 23:14:00,17.0,8.3,30.28,WNW,295,4.4,7.7,68,0.00,,,0.00,0.00,VWS V14.01,2013-01-21 05:14:00,
2013-01-20 23:15:00,17.0,8.3,30.28,West,276,4.4,7.7,68,0.00,,,0.00,0.00,VWS V14.01,2013-01-21 05:15:00,
2013-01-20 23:18:00,17.0,8.6,30.28,WNW,300,5.5,8.8,69,0.00,,,0.00,0.00,VWS V14.01,2013-01-21 05:18:00,
2013-01-20 23:20:00,16.9,8.5,30.28,West,261,5.5,9.9,69,0.00,,,0.00,0.00,VWS V14.01,2013-01-21 05:20:00,
2013-01-20 23:23:00,16.9,8.5,30.28,WNW,289,7.7,9.9,69,0.00,,,0.00,0.00,VWS V14.01,2013-01-21 05:23:00,
2013-01-20 23:25:00,16.9,8.5,30.28,West,273,3.3,4.4,69,0.00,,,0.00,0.00,VWS V14.01,2013-01-21 05:25:00,
2013-01-20 23:26:00,16.9,8.5,30.28,West,275,3.3,5.5,69,0.00,,,0.00,0.00,VWS V14.01,2013-01-21 05:26:00,
2013-01-20 23:28:00,16.8,8.4,30.28,WSW,247,4.4,4.4,69,0.00,,,0.00,0.00,VWS V14.01,2013-01-21 05:28:00,
2013-01-20 23:31:00,16.7,8.6,30.28,WNW,289,3.3,4.4,70,0.00,,,0.00,0.00,VWS V14.01,2013-01-21 05:31:00,
2013-01-20 23:32:00,16.7,8.6,30.28,West,281,3.3,5.5,70,0.00,,,0.00,0.00,VWS V14.01,2013-01-21 05:32:00,
2013-01-20 23:33:00,16.7,8.6,30.28,WNW,287,4.4,7.7,70,0.00,,,0.00,0.00,VWS V14.01,2013-01-21 05:33:00,
2013-01-20 23:37:00,16.6,8.5,30.28,NW,306,5.5,5.5,70,0.00,,,0.00,0.00,VWS V14.01,2013-01-21 05:37:00,
2013-01-20 23:38:00,16.6,8.5,30.28,West,281,6.6,11.0,70,0.00,,,0.00,0.00,VWS V14.01,2013-01-21 05:38:00,
2013-01-20 23:39:00,16.6,8.5,30.28,West,275,5.5,5.5,70,0.00,,,0.00,0.00,VWS V14.01,2013-01-21 05:39:00,
2013-01-20 23:42:00,16.5,8.4,30.28,West,281,9.9,9.9,70,0.00,,,0.00,0.00,VWS V14.01,2013-01-21 05:42:00,
2013-01-20 23:43:00,16.5,8.4,30.28,West,277,6.6,9.9,70,0.00,,,0.00,0.00,VWS V14.01,2013-01-21 05:43:00,
2013-01-20 23:44:00,16.4,8.0,30.28,WNW,290,7.7,7.7,69,0.00,,,0.00,0.00,VWS V14.01,2013-01-21 05:44:00,
2013-01-20 23:48:00,16.4,8.0,30.28,West,268,5.5,8.8,69,0.00,,,0.00,0.00,VWS V14.01,2013-01-21 05:48:00,
2013-01-20 23:49:00,16.3,8.2,30.28,West,274,4.4,5.5,70,0.00,,,0.00,0.00,VWS V14.01,2013-01-21 05:49:00,
2013-01-20 23:50:00,16.3,8.2,30.28,WSW,256,3.3,5.5,70,0.00,,,0.00,0.00,VWS V14.01,2013-01-21 05:50:00,
2013-01-20 23:53:00,16.3,8.2,30.28,West,280,7.7,7.7,70,0.00,,,0.00,0.00,VWS V14.01,2013-01-21 05:53:00,
2013-01-20 23:54:00,16.3,8.2,30.28,WSW,249,5.5,5.5,70,0.00,,,0.00,0.00,VWS V14.01,2013-01-21 05:54:00,
2013-01-20 23:55:00,16.3,8.2,30.28,West,270,7.7,7.7,70,0.00,,,0.00,0.00,VWS V14.01,2013-01-21 05:55:00,
2013-01-20 23:59:00,16.2,8.1,30.27,West,264,6.6,6.6,70,0.00,,,0.00,0.00,VWS V14.01,2013-01-21 05:59:00,